<?xml version="1.0" encoding="UTF-8" standalone="no" ?>
<gpx xmlns="http://www.topografix.com/GPX/1/1" xmlns:xsi="http://www.w3.org/2001/XMLSchema-instance" xsi:schemaLocation="http://www.topografix.com/GPX/1/1 http://www.topografix.com/GPX/1/1/gpx.xsd" version="1.1" creator="VisuGPX - https://www.visugpx.com">
  <metadata>
    <name>Saint Pierre (Cantal)</name>
    <desc><![CDATA[point de vue remarquable sur les gorges de la Dordogne, le massif du Sancy & les monts du Cantal]]></desc>
  </metadata>
  <trk>
    <name><![CDATA[Saint Pierre (Cantal)_1]]></name>
    <trkseg>
      <trkpt lat="45.38707" lon="2.38984">
        <ele>634</ele>
        <time>2015-10-25T08:16:31Z</time>
      </trkpt>
      <trkpt lat="45.38708" lon="2.38986">
        <ele>636</ele>
        <time>2015-10-25T08:16:31Z</time>
      </trkpt>
      <trkpt lat="45.38708" lon="2.38982">
        <ele>644</ele>
        <time>2015-10-25T08:16:38Z</time>
      </trkpt>
      <trkpt lat="45.38709" lon="2.38982">
        <ele>647</ele>
        <time>2015-10-25T08:16:45Z</time>
      </trkpt>
      <trkpt lat="45.38713" lon="2.38972">
        <ele>651</ele>
        <time>2015-10-25T08:16:52Z</time>
      </trkpt>
      <trkpt lat="45.3872" lon="2.38966">
        <ele>650</ele>
        <time>2015-10-25T08:16:55Z</time>
      </trkpt>
      <trkpt lat="45.38725" lon="2.38958">
        <ele>651</ele>
        <time>2015-10-25T08:16:57Z</time>
      </trkpt>
      <trkpt lat="45.3873" lon="2.38946">
        <ele>651</ele>
        <time>2015-10-25T08:17:00Z</time>
      </trkpt>
      <trkpt lat="45.38733" lon="2.38931">
        <ele>652</ele>
        <time>2015-10-25T08:17:03Z</time>
      </trkpt>
      <trkpt lat="45.38739" lon="2.38924">
        <ele>652</ele>
        <time>2015-10-25T08:17:05Z</time>
      </trkpt>
      <trkpt lat="45.38751" lon="2.38917">
        <ele>649</ele>
        <time>2015-10-25T08:17:08Z</time>
      </trkpt>
      <trkpt lat="45.38758" lon="2.38912">
        <ele>650</ele>
        <time>2015-10-25T08:17:10Z</time>
      </trkpt>
      <trkpt lat="45.38765" lon="2.38902">
        <ele>649</ele>
        <time>2015-10-25T08:17:12Z</time>
      </trkpt>
      <trkpt lat="45.38769" lon="2.38888">
        <ele>649</ele>
        <time>2015-10-25T08:17:14Z</time>
      </trkpt>
      <trkpt lat="45.38776" lon="2.38875">
        <ele>648</ele>
        <time>2015-10-25T08:17:16Z</time>
      </trkpt>
      <trkpt lat="45.38782" lon="2.38859">
        <ele>648</ele>
        <time>2015-10-25T08:17:18Z</time>
      </trkpt>
      <trkpt lat="45.38788" lon="2.38843">
        <ele>647</ele>
        <time>2015-10-25T08:17:20Z</time>
      </trkpt>
      <trkpt lat="45.38793" lon="2.38835">
        <ele>647</ele>
        <time>2015-10-25T08:17:21Z</time>
      </trkpt>
      <trkpt lat="45.388" lon="2.38821">
        <ele>646</ele>
        <time>2015-10-25T08:17:23Z</time>
      </trkpt>
      <trkpt lat="45.38799" lon="2.38806">
        <ele>640</ele>
        <time>2015-10-25T08:17:25Z</time>
      </trkpt>
      <trkpt lat="45.38797" lon="2.38796">
        <ele>642</ele>
        <time>2015-10-25T08:17:26Z</time>
      </trkpt>
      <trkpt lat="45.3879" lon="2.38781">
        <ele>641</ele>
        <time>2015-10-25T08:17:28Z</time>
      </trkpt>
      <trkpt lat="45.38786" lon="2.38772">
        <ele>641</ele>
        <time>2015-10-25T08:17:29Z</time>
      </trkpt>
      <trkpt lat="45.38781" lon="2.3876">
        <ele>642</ele>
        <time>2015-10-25T08:17:30Z</time>
      </trkpt>
      <trkpt lat="45.38774" lon="2.38747">
        <ele>641</ele>
        <time>2015-10-25T08:17:32Z</time>
      </trkpt>
      <trkpt lat="45.38763" lon="2.38733">
        <ele>641</ele>
        <time>2015-10-25T08:17:34Z</time>
      </trkpt>
      <trkpt lat="45.38755" lon="2.38719">
        <ele>642</ele>
        <time>2015-10-25T08:17:36Z</time>
      </trkpt>
      <trkpt lat="45.38743" lon="2.38708">
        <ele>641</ele>
        <time>2015-10-25T08:17:38Z</time>
      </trkpt>
      <trkpt lat="45.38735" lon="2.38699">
        <ele>641</ele>
        <time>2015-10-25T08:17:40Z</time>
      </trkpt>
      <trkpt lat="45.38725" lon="2.3869">
        <ele>641</ele>
        <time>2015-10-25T08:17:42Z</time>
      </trkpt>
      <trkpt lat="45.38716" lon="2.38681">
        <ele>641</ele>
        <time>2015-10-25T08:17:44Z</time>
      </trkpt>
      <trkpt lat="45.38707" lon="2.38675">
        <ele>641</ele>
        <time>2015-10-25T08:17:46Z</time>
      </trkpt>
      <trkpt lat="45.38697" lon="2.38669">
        <ele>641</ele>
        <time>2015-10-25T08:17:48Z</time>
      </trkpt>
      <trkpt lat="45.38688" lon="2.38661">
        <ele>640</ele>
        <time>2015-10-25T08:17:50Z</time>
      </trkpt>
      <trkpt lat="45.38675" lon="2.38656">
        <ele>639</ele>
        <time>2015-10-25T08:17:52Z</time>
      </trkpt>
      <trkpt lat="45.38663" lon="2.38653">
        <ele>639</ele>
        <time>2015-10-25T08:17:54Z</time>
      </trkpt>
      <trkpt lat="45.38653" lon="2.38653">
        <ele>639</ele>
        <time>2015-10-25T08:17:56Z</time>
      </trkpt>
      <trkpt lat="45.38642" lon="2.38653">
        <ele>639</ele>
        <time>2015-10-25T08:17:58Z</time>
      </trkpt>
      <trkpt lat="45.38633" lon="2.38645">
        <ele>639</ele>
        <time>2015-10-25T08:18:00Z</time>
      </trkpt>
      <trkpt lat="45.38633" lon="2.3863">
        <ele>637</ele>
        <time>2015-10-25T08:18:02Z</time>
      </trkpt>
      <trkpt lat="45.38631" lon="2.38611">
        <ele>637</ele>
        <time>2015-10-25T08:18:04Z</time>
      </trkpt>
      <trkpt lat="45.38628" lon="2.38591">
        <ele>636</ele>
        <time>2015-10-25T08:18:06Z</time>
      </trkpt>
      <trkpt lat="45.38625" lon="2.38579">
        <ele>637</ele>
        <time>2015-10-25T08:18:07Z</time>
      </trkpt>
      <trkpt lat="45.38624" lon="2.38564">
        <ele>635</ele>
        <time>2015-10-25T08:18:09Z</time>
      </trkpt>
      <trkpt lat="45.38619" lon="2.38548">
        <ele>634</ele>
        <time>2015-10-25T08:18:11Z</time>
      </trkpt>
      <trkpt lat="45.38618" lon="2.38533">
        <ele>634</ele>
        <time>2015-10-25T08:18:13Z</time>
      </trkpt>
      <trkpt lat="45.3862" lon="2.3852">
        <ele>635</ele>
        <time>2015-10-25T08:18:15Z</time>
      </trkpt>
      <trkpt lat="45.38624" lon="2.38508">
        <ele>636</ele>
        <time>2015-10-25T08:18:17Z</time>
      </trkpt>
      <trkpt lat="45.38627" lon="2.38498">
        <ele>634</ele>
        <time>2015-10-25T08:18:19Z</time>
      </trkpt>
      <trkpt lat="45.38629" lon="2.38487">
        <ele>630</ele>
        <time>2015-10-25T08:18:21Z</time>
      </trkpt>
      <trkpt lat="45.38633" lon="2.38479">
        <ele>631</ele>
        <time>2015-10-25T08:18:23Z</time>
      </trkpt>
      <trkpt lat="45.38642" lon="2.3848">
        <ele>630</ele>
        <time>2015-10-25T08:18:25Z</time>
      </trkpt>
      <trkpt lat="45.38653" lon="2.38479">
        <ele>627</ele>
        <time>2015-10-25T08:18:28Z</time>
      </trkpt>
      <trkpt lat="45.38661" lon="2.38478">
        <ele>628</ele>
        <time>2015-10-25T08:18:30Z</time>
      </trkpt>
      <trkpt lat="45.38668" lon="2.38476">
        <ele>629</ele>
        <time>2015-10-25T08:18:32Z</time>
      </trkpt>
      <trkpt lat="45.38676" lon="2.3847">
        <ele>629</ele>
        <time>2015-10-25T08:18:34Z</time>
      </trkpt>
      <trkpt lat="45.38682" lon="2.38463">
        <ele>628</ele>
        <time>2015-10-25T08:18:36Z</time>
      </trkpt>
      <trkpt lat="45.38689" lon="2.38451">
        <ele>628</ele>
        <time>2015-10-25T08:18:38Z</time>
      </trkpt>
      <trkpt lat="45.38696" lon="2.38444">
        <ele>630</ele>
        <time>2015-10-25T08:18:40Z</time>
      </trkpt>
      <trkpt lat="45.38703" lon="2.38437">
        <ele>631</ele>
        <time>2015-10-25T08:18:42Z</time>
      </trkpt>
      <trkpt lat="45.38709" lon="2.3843">
        <ele>630</ele>
        <time>2015-10-25T08:18:44Z</time>
      </trkpt>
      <trkpt lat="45.38717" lon="2.38426">
        <ele>631</ele>
        <time>2015-10-25T08:18:46Z</time>
      </trkpt>
      <trkpt lat="45.38725" lon="2.38422">
        <ele>628</ele>
        <time>2015-10-25T08:18:48Z</time>
      </trkpt>
      <trkpt lat="45.3873" lon="2.38414">
        <ele>630</ele>
        <time>2015-10-25T08:18:50Z</time>
      </trkpt>
      <trkpt lat="45.38734" lon="2.38403">
        <ele>630</ele>
        <time>2015-10-25T08:18:52Z</time>
      </trkpt>
      <trkpt lat="45.38737" lon="2.38393">
        <ele>630</ele>
        <time>2015-10-25T08:18:54Z</time>
      </trkpt>
      <trkpt lat="45.38741" lon="2.38382">
        <ele>628</ele>
        <time>2015-10-25T08:18:56Z</time>
      </trkpt>
      <trkpt lat="45.38745" lon="2.38372">
        <ele>630</ele>
        <time>2015-10-25T08:18:58Z</time>
      </trkpt>
      <trkpt lat="45.3875" lon="2.38362">
        <ele>629</ele>
        <time>2015-10-25T08:19:00Z</time>
      </trkpt>
      <trkpt lat="45.38754" lon="2.38353">
        <ele>629</ele>
        <time>2015-10-25T08:19:02Z</time>
      </trkpt>
      <trkpt lat="45.38759" lon="2.38344">
        <ele>629</ele>
        <time>2015-10-25T08:19:04Z</time>
      </trkpt>
      <trkpt lat="45.38764" lon="2.38336">
        <ele>629</ele>
        <time>2015-10-25T08:19:06Z</time>
      </trkpt>
      <trkpt lat="45.38768" lon="2.38323">
        <ele>629</ele>
        <time>2015-10-25T08:19:09Z</time>
      </trkpt>
      <trkpt lat="45.3877" lon="2.38309">
        <ele>629</ele>
        <time>2015-10-25T08:19:12Z</time>
      </trkpt>
      <trkpt lat="45.38771" lon="2.38294">
        <ele>629</ele>
        <time>2015-10-25T08:19:15Z</time>
      </trkpt>
      <trkpt lat="45.38769" lon="2.38282">
        <ele>627</ele>
        <time>2015-10-25T08:19:18Z</time>
      </trkpt>
      <trkpt lat="45.38768" lon="2.38271">
        <ele>626</ele>
        <time>2015-10-25T08:19:21Z</time>
      </trkpt>
      <trkpt lat="45.38763" lon="2.38259">
        <ele>626</ele>
        <time>2015-10-25T08:19:24Z</time>
      </trkpt>
      <trkpt lat="45.38756" lon="2.3825">
        <ele>630</ele>
        <time>2015-10-25T08:19:27Z</time>
      </trkpt>
      <trkpt lat="45.38748" lon="2.38246">
        <ele>630</ele>
        <time>2015-10-25T08:19:30Z</time>
      </trkpt>
      <trkpt lat="45.38738" lon="2.38247">
        <ele>629</ele>
        <time>2015-10-25T08:19:33Z</time>
      </trkpt>
      <trkpt lat="45.38729" lon="2.38249">
        <ele>630</ele>
        <time>2015-10-25T08:19:36Z</time>
      </trkpt>
      <trkpt lat="45.3872" lon="2.38252">
        <ele>630</ele>
        <time>2015-10-25T08:19:39Z</time>
      </trkpt>
      <trkpt lat="45.38714" lon="2.38255">
        <ele>630</ele>
        <time>2015-10-25T08:19:41Z</time>
      </trkpt>
      <trkpt lat="45.38703" lon="2.38258">
        <ele>629</ele>
        <time>2015-10-25T08:19:44Z</time>
      </trkpt>
      <trkpt lat="45.38693" lon="2.3826">
        <ele>629</ele>
        <time>2015-10-25T08:19:47Z</time>
      </trkpt>
      <trkpt lat="45.38683" lon="2.38264">
        <ele>629</ele>
        <time>2015-10-25T08:20:00Z</time>
      </trkpt>
      <trkpt lat="45.38673" lon="2.38267">
        <ele>629</ele>
        <time>2015-10-25T08:20:03Z</time>
      </trkpt>
      <trkpt lat="45.38663" lon="2.3827">
        <ele>628</ele>
        <time>2015-10-25T08:20:06Z</time>
      </trkpt>
      <trkpt lat="45.38653" lon="2.38271">
        <ele>630</ele>
        <time>2015-10-25T08:20:09Z</time>
      </trkpt>
      <trkpt lat="45.38643" lon="2.38271">
        <ele>630</ele>
        <time>2015-10-25T08:20:12Z</time>
      </trkpt>
      <trkpt lat="45.38634" lon="2.38269">
        <ele>630</ele>
        <time>2015-10-25T08:20:15Z</time>
      </trkpt>
      <trkpt lat="45.38625" lon="2.38266">
        <ele>630</ele>
        <time>2015-10-25T08:20:18Z</time>
      </trkpt>
      <trkpt lat="45.38616" lon="2.38264">
        <ele>628</ele>
        <time>2015-10-25T08:20:21Z</time>
      </trkpt>
      <trkpt lat="45.38608" lon="2.38258">
        <ele>628</ele>
        <time>2015-10-25T08:20:24Z</time>
      </trkpt>
      <trkpt lat="45.38599" lon="2.38254">
        <ele>628</ele>
        <time>2015-10-25T08:20:27Z</time>
      </trkpt>
      <trkpt lat="45.3859" lon="2.38249">
        <ele>628</ele>
        <time>2015-10-25T08:20:30Z</time>
      </trkpt>
      <trkpt lat="45.38581" lon="2.38243">
        <ele>629</ele>
        <time>2015-10-25T08:20:33Z</time>
      </trkpt>
      <trkpt lat="45.38573" lon="2.38237">
        <ele>632</ele>
        <time>2015-10-25T08:20:36Z</time>
      </trkpt>
      <trkpt lat="45.38564" lon="2.38233">
        <ele>628</ele>
        <time>2015-10-25T08:20:39Z</time>
      </trkpt>
      <trkpt lat="45.38556" lon="2.38228">
        <ele>629</ele>
        <time>2015-10-25T08:20:42Z</time>
      </trkpt>
      <trkpt lat="45.38548" lon="2.3822">
        <ele>630</ele>
        <time>2015-10-25T08:20:45Z</time>
      </trkpt>
      <trkpt lat="45.3854" lon="2.38214">
        <ele>631</ele>
        <time>2015-10-25T08:20:48Z</time>
      </trkpt>
      <trkpt lat="45.38531" lon="2.3821">
        <ele>631</ele>
        <time>2015-10-25T08:20:51Z</time>
      </trkpt>
      <trkpt lat="45.38521" lon="2.38206">
        <ele>631</ele>
        <time>2015-10-25T08:20:54Z</time>
      </trkpt>
      <trkpt lat="45.38512" lon="2.38203">
        <ele>632</ele>
        <time>2015-10-25T08:20:57Z</time>
      </trkpt>
      <trkpt lat="45.38503" lon="2.382">
        <ele>632</ele>
        <time>2015-10-25T08:21:00Z</time>
      </trkpt>
      <trkpt lat="45.38493" lon="2.382">
        <ele>633</ele>
        <time>2015-10-25T08:21:03Z</time>
      </trkpt>
      <trkpt lat="45.38485" lon="2.38197">
        <ele>633</ele>
        <time>2015-10-25T08:21:06Z</time>
      </trkpt>
      <trkpt lat="45.38476" lon="2.38194">
        <ele>632</ele>
        <time>2015-10-25T08:21:09Z</time>
      </trkpt>
      <trkpt lat="45.38468" lon="2.38193">
        <ele>633</ele>
        <time>2015-10-25T08:21:12Z</time>
      </trkpt>
      <trkpt lat="45.38461" lon="2.38193">
        <ele>634</ele>
        <time>2015-10-25T08:21:15Z</time>
      </trkpt>
      <trkpt lat="45.38453" lon="2.38192">
        <ele>632</ele>
        <time>2015-10-25T08:21:18Z</time>
      </trkpt>
      <trkpt lat="45.38446" lon="2.38186">
        <ele>632</ele>
        <time>2015-10-25T08:21:21Z</time>
      </trkpt>
      <trkpt lat="45.38444" lon="2.38174">
        <ele>632</ele>
        <time>2015-10-25T08:21:25Z</time>
      </trkpt>
      <trkpt lat="45.38436" lon="2.38178">
        <ele>630</ele>
        <time>2015-10-25T08:21:28Z</time>
      </trkpt>
      <trkpt lat="45.38426" lon="2.38184">
        <ele>631</ele>
        <time>2015-10-25T08:21:31Z</time>
      </trkpt>
      <trkpt lat="45.38419" lon="2.38187">
        <ele>631</ele>
        <time>2015-10-25T08:21:33Z</time>
      </trkpt>
      <trkpt lat="45.38412" lon="2.38192">
        <ele>631</ele>
        <time>2015-10-25T08:21:35Z</time>
      </trkpt>
      <trkpt lat="45.38404" lon="2.38197">
        <ele>631</ele>
        <time>2015-10-25T08:21:37Z</time>
      </trkpt>
      <trkpt lat="45.38397" lon="2.38202">
        <ele>630</ele>
        <time>2015-10-25T08:21:39Z</time>
      </trkpt>
      <trkpt lat="45.3839" lon="2.38208">
        <ele>630</ele>
        <time>2015-10-25T08:21:41Z</time>
      </trkpt>
      <trkpt lat="45.38383" lon="2.38213">
        <ele>630</ele>
        <time>2015-10-25T08:21:43Z</time>
      </trkpt>
      <trkpt lat="45.38375" lon="2.38219">
        <ele>630</ele>
        <time>2015-10-25T08:21:45Z</time>
      </trkpt>
      <trkpt lat="45.38368" lon="2.38224">
        <ele>630</ele>
        <time>2015-10-25T08:21:47Z</time>
      </trkpt>
      <trkpt lat="45.3836" lon="2.3823">
        <ele>630</ele>
        <time>2015-10-25T08:21:49Z</time>
      </trkpt>
      <trkpt lat="45.38352" lon="2.38236">
        <ele>630</ele>
        <time>2015-10-25T08:21:51Z</time>
      </trkpt>
      <trkpt lat="45.38344" lon="2.38242">
        <ele>630</ele>
        <time>2015-10-25T08:21:53Z</time>
      </trkpt>
      <trkpt lat="45.38337" lon="2.38248">
        <ele>630</ele>
        <time>2015-10-25T08:21:55Z</time>
      </trkpt>
      <trkpt lat="45.38329" lon="2.38254">
        <ele>630</ele>
        <time>2015-10-25T08:21:57Z</time>
      </trkpt>
      <trkpt lat="45.38322" lon="2.38261">
        <ele>629</ele>
        <time>2015-10-25T08:21:59Z</time>
      </trkpt>
      <trkpt lat="45.38315" lon="2.3827">
        <ele>629</ele>
        <time>2015-10-25T08:22:01Z</time>
      </trkpt>
      <trkpt lat="45.38309" lon="2.38283">
        <ele>628</ele>
        <time>2015-10-25T08:22:03Z</time>
      </trkpt>
      <trkpt lat="45.38305" lon="2.38296">
        <ele>628</ele>
        <time>2015-10-25T08:22:05Z</time>
      </trkpt>
      <trkpt lat="45.38301" lon="2.38311">
        <ele>627</ele>
        <time>2015-10-25T08:22:07Z</time>
      </trkpt>
      <trkpt lat="45.38297" lon="2.38325">
        <ele>626</ele>
        <time>2015-10-25T08:22:09Z</time>
      </trkpt>
      <trkpt lat="45.38288" lon="2.38331">
        <ele>625</ele>
        <time>2015-10-25T08:22:11Z</time>
      </trkpt>
      <trkpt lat="45.38282" lon="2.3832">
        <ele>624</ele>
        <time>2015-10-25T08:22:13Z</time>
      </trkpt>
      <trkpt lat="45.38284" lon="2.38305">
        <ele>622</ele>
        <time>2015-10-25T08:22:15Z</time>
      </trkpt>
      <trkpt lat="45.38281" lon="2.38293">
        <ele>621</ele>
        <time>2015-10-25T08:22:18Z</time>
      </trkpt>
      <trkpt lat="45.38274" lon="2.3829">
        <ele>620</ele>
        <time>2015-10-25T08:22:20Z</time>
      </trkpt>
      <trkpt lat="45.38265" lon="2.38286">
        <ele>620</ele>
        <time>2015-10-25T08:22:22Z</time>
      </trkpt>
      <trkpt lat="45.38255" lon="2.38283">
        <ele>620</ele>
        <time>2015-10-25T08:22:25Z</time>
      </trkpt>
      <trkpt lat="45.38247" lon="2.38279">
        <ele>621</ele>
        <time>2015-10-25T08:22:27Z</time>
      </trkpt>
      <trkpt lat="45.38239" lon="2.38277">
        <ele>622</ele>
        <time>2015-10-25T08:22:29Z</time>
      </trkpt>
      <trkpt lat="45.38231" lon="2.38274">
        <ele>621</ele>
        <time>2015-10-25T08:22:31Z</time>
      </trkpt>
      <trkpt lat="45.38224" lon="2.38272">
        <ele>620</ele>
        <time>2015-10-25T08:22:33Z</time>
      </trkpt>
      <trkpt lat="45.38216" lon="2.38271">
        <ele>620</ele>
        <time>2015-10-25T08:22:35Z</time>
      </trkpt>
      <trkpt lat="45.38207" lon="2.3827">
        <ele>620</ele>
        <time>2015-10-25T08:22:37Z</time>
      </trkpt>
      <trkpt lat="45.38198" lon="2.38271">
        <ele>621</ele>
        <time>2015-10-25T08:22:39Z</time>
      </trkpt>
      <trkpt lat="45.38187" lon="2.38275">
        <ele>621</ele>
        <time>2015-10-25T08:22:41Z</time>
      </trkpt>
      <trkpt lat="45.38176" lon="2.38279">
        <ele>620</ele>
        <time>2015-10-25T08:22:43Z</time>
      </trkpt>
      <trkpt lat="45.38165" lon="2.38281">
        <ele>619</ele>
        <time>2015-10-25T08:22:45Z</time>
      </trkpt>
      <trkpt lat="45.38154" lon="2.38281">
        <ele>619</ele>
        <time>2015-10-25T08:22:47Z</time>
      </trkpt>
      <trkpt lat="45.38145" lon="2.38276">
        <ele>620</ele>
        <time>2015-10-25T08:22:49Z</time>
      </trkpt>
      <trkpt lat="45.38138" lon="2.38271">
        <ele>620</ele>
        <time>2015-10-25T08:22:51Z</time>
      </trkpt>
      <trkpt lat="45.38134" lon="2.38267">
        <ele>620</ele>
        <time>2015-10-25T08:22:58Z</time>
      </trkpt>
      <trkpt lat="45.38134" lon="2.38267">
        <ele>620</ele>
        <time>2015-10-25T08:23:00Z</time>
      </trkpt>
      <trkpt lat="45.38134" lon="2.38268">
        <ele>619</ele>
        <time>2015-10-25T08:23:11Z</time>
      </trkpt>
      <trkpt lat="45.38134" lon="2.38268">
        <ele>619</ele>
        <time>2015-10-25T08:23:12Z</time>
      </trkpt>
      <trkpt lat="45.38133" lon="2.38267">
        <ele>622</ele>
        <time>2015-10-25T08:23:39Z</time>
      </trkpt>
      <trkpt lat="45.38133" lon="2.38268">
        <ele>622</ele>
        <time>2015-10-25T08:23:40Z</time>
      </trkpt>
      <trkpt lat="45.38126" lon="2.38259">
        <ele>621</ele>
        <time>2015-10-25T08:25:21Z</time>
      </trkpt>
      <trkpt lat="45.38119" lon="2.38253">
        <ele>621</ele>
        <time>2015-10-25T08:25:25Z</time>
      </trkpt>
      <trkpt lat="45.38112" lon="2.38247">
        <ele>622</ele>
        <time>2015-10-25T08:25:29Z</time>
      </trkpt>
      <trkpt lat="45.38105" lon="2.38241">
        <ele>624</ele>
        <time>2015-10-25T08:25:34Z</time>
      </trkpt>
      <trkpt lat="45.38098" lon="2.38236">
        <ele>624</ele>
        <time>2015-10-25T08:25:39Z</time>
      </trkpt>
      <trkpt lat="45.3809" lon="2.38231">
        <ele>626</ele>
        <time>2015-10-25T08:25:44Z</time>
      </trkpt>
      <trkpt lat="45.38083" lon="2.38227">
        <ele>625</ele>
        <time>2015-10-25T08:25:48Z</time>
      </trkpt>
      <trkpt lat="45.38075" lon="2.38224">
        <ele>625</ele>
        <time>2015-10-25T08:25:52Z</time>
      </trkpt>
      <trkpt lat="45.38067" lon="2.38222">
        <ele>625</ele>
        <time>2015-10-25T08:25:56Z</time>
      </trkpt>
      <trkpt lat="45.3806" lon="2.38221">
        <ele>626</ele>
        <time>2015-10-25T08:26:00Z</time>
      </trkpt>
      <trkpt lat="45.38051" lon="2.3822">
        <ele>626</ele>
        <time>2015-10-25T08:26:05Z</time>
      </trkpt>
      <trkpt lat="45.38043" lon="2.38219">
        <ele>628</ele>
        <time>2015-10-25T08:26:09Z</time>
      </trkpt>
      <trkpt lat="45.38035" lon="2.38217">
        <ele>627</ele>
        <time>2015-10-25T08:26:14Z</time>
      </trkpt>
      <trkpt lat="45.38028" lon="2.38212">
        <ele>629</ele>
        <time>2015-10-25T08:26:18Z</time>
      </trkpt>
      <trkpt lat="45.38021" lon="2.38206">
        <ele>630</ele>
        <time>2015-10-25T08:26:23Z</time>
      </trkpt>
      <trkpt lat="45.38014" lon="2.382">
        <ele>630</ele>
        <time>2015-10-25T08:26:27Z</time>
      </trkpt>
      <trkpt lat="45.38008" lon="2.38193">
        <ele>630</ele>
        <time>2015-10-25T08:26:31Z</time>
      </trkpt>
      <trkpt lat="45.38001" lon="2.38184">
        <ele>631</ele>
        <time>2015-10-25T08:26:36Z</time>
      </trkpt>
      <trkpt lat="45.37995" lon="2.38177">
        <ele>633</ele>
        <time>2015-10-25T08:26:40Z</time>
      </trkpt>
      <trkpt lat="45.37989" lon="2.3817">
        <ele>630</ele>
        <time>2015-10-25T08:26:44Z</time>
      </trkpt>
      <trkpt lat="45.37983" lon="2.38164">
        <ele>631</ele>
        <time>2015-10-25T08:26:48Z</time>
      </trkpt>
      <trkpt lat="45.37975" lon="2.38163">
        <ele>634</ele>
        <time>2015-10-25T08:26:52Z</time>
      </trkpt>
      <trkpt lat="45.37968" lon="2.38167">
        <ele>637</ele>
        <time>2015-10-25T08:26:56Z</time>
      </trkpt>
      <trkpt lat="45.3796" lon="2.38171">
        <ele>635</ele>
        <time>2015-10-25T08:27:01Z</time>
      </trkpt>
      <trkpt lat="45.37953" lon="2.38176">
        <ele>638</ele>
        <time>2015-10-25T08:27:05Z</time>
      </trkpt>
      <trkpt lat="45.37946" lon="2.38176">
        <ele>633</ele>
        <time>2015-10-25T08:27:09Z</time>
      </trkpt>
      <trkpt lat="45.37939" lon="2.38171">
        <ele>637</ele>
        <time>2015-10-25T08:27:13Z</time>
      </trkpt>
      <trkpt lat="45.37933" lon="2.38165">
        <ele>639</ele>
        <time>2015-10-25T08:27:17Z</time>
      </trkpt>
      <trkpt lat="45.37927" lon="2.38158">
        <ele>636</ele>
        <time>2015-10-25T08:27:21Z</time>
      </trkpt>
      <trkpt lat="45.37924" lon="2.38148">
        <ele>637</ele>
        <time>2015-10-25T08:27:26Z</time>
      </trkpt>
      <trkpt lat="45.37919" lon="2.38139">
        <ele>633</ele>
        <time>2015-10-25T08:27:32Z</time>
      </trkpt>
      <trkpt lat="45.37913" lon="2.38133">
        <ele>635</ele>
        <time>2015-10-25T08:27:36Z</time>
      </trkpt>
      <trkpt lat="45.37907" lon="2.38125">
        <ele>632</ele>
        <time>2015-10-25T08:27:40Z</time>
      </trkpt>
      <trkpt lat="45.37901" lon="2.38117">
        <ele>639</ele>
        <time>2015-10-25T08:27:44Z</time>
      </trkpt>
      <trkpt lat="45.37897" lon="2.38108">
        <ele>633</ele>
        <time>2015-10-25T08:27:49Z</time>
      </trkpt>
      <trkpt lat="45.37895" lon="2.38095">
        <ele>636</ele>
        <time>2015-10-25T08:27:54Z</time>
      </trkpt>
      <trkpt lat="45.37891" lon="2.38085">
        <ele>632</ele>
        <time>2015-10-25T08:27:59Z</time>
      </trkpt>
      <trkpt lat="45.37889" lon="2.38078">
        <ele>637</ele>
        <time>2015-10-25T08:28:06Z</time>
      </trkpt>
      <trkpt lat="45.37889" lon="2.38075">
        <ele>631</ele>
        <time>2015-10-25T08:28:13Z</time>
      </trkpt>
      <trkpt lat="45.37889" lon="2.38074">
        <ele>634</ele>
        <time>2015-10-25T08:28:15Z</time>
      </trkpt>
      <trkpt lat="45.37888" lon="2.38062">
        <ele>632</ele>
        <time>2015-10-25T08:28:19Z</time>
      </trkpt>
      <trkpt lat="45.37886" lon="2.38051">
        <ele>627</ele>
        <time>2015-10-25T08:28:22Z</time>
      </trkpt>
      <trkpt lat="45.37884" lon="2.38039">
        <ele>630</ele>
        <time>2015-10-25T08:28:25Z</time>
      </trkpt>
      <trkpt lat="45.37883" lon="2.38028">
        <ele>634</ele>
        <time>2015-10-25T08:28:28Z</time>
      </trkpt>
      <trkpt lat="45.37883" lon="2.38017">
        <ele>630</ele>
        <time>2015-10-25T08:28:33Z</time>
      </trkpt>
      <trkpt lat="45.3788" lon="2.38005">
        <ele>636</ele>
        <time>2015-10-25T08:28:38Z</time>
      </trkpt>
      <trkpt lat="45.37881" lon="2.37994">
        <ele>635</ele>
        <time>2015-10-25T08:28:43Z</time>
      </trkpt>
      <trkpt lat="45.3788" lon="2.37984">
        <ele>640</ele>
        <time>2015-10-25T08:28:47Z</time>
      </trkpt>
      <trkpt lat="45.37881" lon="2.37972">
        <ele>636</ele>
        <time>2015-10-25T08:28:52Z</time>
      </trkpt>
      <trkpt lat="45.37882" lon="2.37962">
        <ele>643</ele>
        <time>2015-10-25T08:28:57Z</time>
      </trkpt>
      <trkpt lat="45.37882" lon="2.37951">
        <ele>636</ele>
        <time>2015-10-25T08:29:02Z</time>
      </trkpt>
      <trkpt lat="45.3788" lon="2.37938">
        <ele>643</ele>
        <time>2015-10-25T08:29:06Z</time>
      </trkpt>
      <trkpt lat="45.37877" lon="2.37927">
        <ele>645</ele>
        <time>2015-10-25T08:29:09Z</time>
      </trkpt>
      <trkpt lat="45.37875" lon="2.37917">
        <ele>635</ele>
        <time>2015-10-25T08:29:12Z</time>
      </trkpt>
      <trkpt lat="45.37875" lon="2.37906">
        <ele>640</ele>
        <time>2015-10-25T08:29:15Z</time>
      </trkpt>
      <trkpt lat="45.37874" lon="2.37892">
        <ele>648</ele>
        <time>2015-10-25T08:29:19Z</time>
      </trkpt>
      <trkpt lat="45.37875" lon="2.37882">
        <ele>641</ele>
        <time>2015-10-25T08:29:23Z</time>
      </trkpt>
      <trkpt lat="45.37878" lon="2.37871">
        <ele>650</ele>
        <time>2015-10-25T08:29:27Z</time>
      </trkpt>
      <trkpt lat="45.37882" lon="2.37861">
        <ele>645</ele>
        <time>2015-10-25T08:29:32Z</time>
      </trkpt>
      <trkpt lat="45.37882" lon="2.3785">
        <ele>654</ele>
        <time>2015-10-25T08:29:37Z</time>
      </trkpt>
      <trkpt lat="45.3788" lon="2.37838">
        <ele>648</ele>
        <time>2015-10-25T08:29:43Z</time>
      </trkpt>
      <trkpt lat="45.3788" lon="2.37826">
        <ele>651</ele>
        <time>2015-10-25T08:29:48Z</time>
      </trkpt>
      <trkpt lat="45.37879" lon="2.37815">
        <ele>643</ele>
        <time>2015-10-25T08:29:52Z</time>
      </trkpt>
      <trkpt lat="45.37879" lon="2.37804">
        <ele>650</ele>
        <time>2015-10-25T08:29:57Z</time>
      </trkpt>
      <trkpt lat="45.37878" lon="2.37793">
        <ele>639</ele>
        <time>2015-10-25T08:30:02Z</time>
      </trkpt>
      <trkpt lat="45.37879" lon="2.37782">
        <ele>648</ele>
        <time>2015-10-25T08:30:07Z</time>
      </trkpt>
      <trkpt lat="45.3788" lon="2.37772">
        <ele>635</ele>
        <time>2015-10-25T08:30:11Z</time>
      </trkpt>
      <trkpt lat="45.3788" lon="2.37761">
        <ele>643</ele>
        <time>2015-10-25T08:30:14Z</time>
      </trkpt>
      <trkpt lat="45.37877" lon="2.37747">
        <ele>651</ele>
        <time>2015-10-25T08:30:17Z</time>
      </trkpt>
      <trkpt lat="45.37875" lon="2.37736">
        <ele>645</ele>
        <time>2015-10-25T08:30:20Z</time>
      </trkpt>
      <trkpt lat="45.37872" lon="2.37726">
        <ele>651</ele>
        <time>2015-10-25T08:30:25Z</time>
      </trkpt>
      <trkpt lat="45.37871" lon="2.37715">
        <ele>646</ele>
        <time>2015-10-25T08:30:31Z</time>
      </trkpt>
      <trkpt lat="45.37874" lon="2.37705">
        <ele>659</ele>
        <time>2015-10-25T08:30:37Z</time>
      </trkpt>
      <trkpt lat="45.37873" lon="2.37694">
        <ele>653</ele>
        <time>2015-10-25T08:30:42Z</time>
      </trkpt>
      <trkpt lat="45.37872" lon="2.37682">
        <ele>659</ele>
        <time>2015-10-25T08:30:47Z</time>
      </trkpt>
      <trkpt lat="45.37869" lon="2.37673">
        <ele>648</ele>
        <time>2015-10-25T08:30:51Z</time>
      </trkpt>
      <trkpt lat="45.37865" lon="2.37662">
        <ele>653</ele>
        <time>2015-10-25T08:30:56Z</time>
      </trkpt>
      <trkpt lat="45.37861" lon="2.37651">
        <ele>644</ele>
        <time>2015-10-25T08:31:01Z</time>
      </trkpt>
      <trkpt lat="45.37858" lon="2.3764">
        <ele>647</ele>
        <time>2015-10-25T08:31:07Z</time>
      </trkpt>
      <trkpt lat="45.37854" lon="2.3763">
        <ele>635</ele>
        <time>2015-10-25T08:31:10Z</time>
      </trkpt>
      <trkpt lat="45.37853" lon="2.37619">
        <ele>645</ele>
        <time>2015-10-25T08:31:14Z</time>
      </trkpt>
      <trkpt lat="45.3785" lon="2.37606">
        <ele>650</ele>
        <time>2015-10-25T08:31:18Z</time>
      </trkpt>
      <trkpt lat="45.37847" lon="2.37595">
        <ele>641</ele>
        <time>2015-10-25T08:31:21Z</time>
      </trkpt>
      <trkpt lat="45.37845" lon="2.37582">
        <ele>639</ele>
        <time>2015-10-25T08:31:24Z</time>
      </trkpt>
      <trkpt lat="45.37843" lon="2.37569">
        <ele>646</ele>
        <time>2015-10-25T08:31:27Z</time>
      </trkpt>
      <trkpt lat="45.37839" lon="2.37556">
        <ele>646</ele>
        <time>2015-10-25T08:31:30Z</time>
      </trkpt>
      <trkpt lat="45.37835" lon="2.37547">
        <ele>630</ele>
        <time>2015-10-25T08:31:32Z</time>
      </trkpt>
      <trkpt lat="45.37828" lon="2.37537">
        <ele>639</ele>
        <time>2015-10-25T08:31:35Z</time>
      </trkpt>
      <trkpt lat="45.37821" lon="2.37531">
        <ele>645</ele>
        <time>2015-10-25T08:31:38Z</time>
      </trkpt>
      <trkpt lat="45.37816" lon="2.37523">
        <ele>648</ele>
        <time>2015-10-25T08:31:41Z</time>
      </trkpt>
      <trkpt lat="45.37811" lon="2.37514">
        <ele>631</ele>
        <time>2015-10-25T08:31:44Z</time>
      </trkpt>
      <trkpt lat="45.37807" lon="2.37505">
        <ele>648</ele>
        <time>2015-10-25T08:31:49Z</time>
      </trkpt>
      <trkpt lat="45.37805" lon="2.37494">
        <ele>653</ele>
        <time>2015-10-25T08:31:53Z</time>
      </trkpt>
      <trkpt lat="45.37801" lon="2.37484">
        <ele>641</ele>
        <time>2015-10-25T08:31:57Z</time>
      </trkpt>
      <trkpt lat="45.37796" lon="2.37475">
        <ele>654</ele>
        <time>2015-10-25T08:32:01Z</time>
      </trkpt>
      <trkpt lat="45.3779" lon="2.37466">
        <ele>658</ele>
        <time>2015-10-25T08:32:05Z</time>
      </trkpt>
      <trkpt lat="45.37784" lon="2.37459">
        <ele>646</ele>
        <time>2015-10-25T08:32:08Z</time>
      </trkpt>
      <trkpt lat="45.37778" lon="2.37451">
        <ele>660</ele>
        <time>2015-10-25T08:32:11Z</time>
      </trkpt>
      <trkpt lat="45.37774" lon="2.37442">
        <ele>666</ele>
        <time>2015-10-25T08:32:14Z</time>
      </trkpt>
      <trkpt lat="45.3777" lon="2.37431">
        <ele>655</ele>
        <time>2015-10-25T08:32:18Z</time>
      </trkpt>
      <trkpt lat="45.37769" lon="2.37425">
        <ele>669</ele>
        <time>2015-10-25T08:32:25Z</time>
      </trkpt>
      <trkpt lat="45.3777" lon="2.37424">
        <ele>665</ele>
        <time>2015-10-25T08:32:29Z</time>
      </trkpt>
      <trkpt lat="45.3777" lon="2.37423">
        <ele>660</ele>
        <time>2015-10-25T08:32:38Z</time>
      </trkpt>
      <trkpt lat="45.3777" lon="2.37423">
        <ele>664</ele>
        <time>2015-10-25T08:32:39Z</time>
      </trkpt>
      <trkpt lat="45.37768" lon="2.37421">
        <ele>671</ele>
        <time>2015-10-25T08:33:05Z</time>
      </trkpt>
      <trkpt lat="45.37763" lon="2.37413">
        <ele>670</ele>
        <time>2015-10-25T08:33:12Z</time>
      </trkpt>
      <trkpt lat="45.37758" lon="2.37412">
        <ele>665</ele>
        <time>2015-10-25T08:33:19Z</time>
      </trkpt>
      <trkpt lat="45.37755" lon="2.37408">
        <ele>677</ele>
        <time>2015-10-25T08:33:26Z</time>
      </trkpt>
      <trkpt lat="45.37755" lon="2.37408">
        <ele>674</ele>
        <time>2015-10-25T08:33:31Z</time>
      </trkpt>
      <trkpt lat="45.37749" lon="2.37403">
        <ele>680</ele>
        <time>2015-10-25T08:33:39Z</time>
      </trkpt>
      <trkpt lat="45.37743" lon="2.37399">
        <ele>672</ele>
        <time>2015-10-25T08:33:46Z</time>
      </trkpt>
      <trkpt lat="45.37738" lon="2.37397">
        <ele>675</ele>
        <time>2015-10-25T08:33:53Z</time>
      </trkpt>
      <trkpt lat="45.37733" lon="2.37396">
        <ele>662</ele>
        <time>2015-10-25T08:34:00Z</time>
      </trkpt>
      <trkpt lat="45.37728" lon="2.37395">
        <ele>683</ele>
        <time>2015-10-25T08:34:07Z</time>
      </trkpt>
      <trkpt lat="45.37722" lon="2.37394">
        <ele>678</ele>
        <time>2015-10-25T08:34:14Z</time>
      </trkpt>
      <trkpt lat="45.37717" lon="2.37393">
        <ele>675</ele>
        <time>2015-10-25T08:34:21Z</time>
      </trkpt>
      <trkpt lat="45.37714" lon="2.37392">
        <ele>689</ele>
        <time>2015-10-25T08:34:28Z</time>
      </trkpt>
      <trkpt lat="45.37708" lon="2.37391">
        <ele>685</ele>
        <time>2015-10-25T08:34:35Z</time>
      </trkpt>
      <trkpt lat="45.37702" lon="2.3739">
        <ele>680</ele>
        <time>2015-10-25T08:34:42Z</time>
      </trkpt>
      <trkpt lat="45.37699" lon="2.37391">
        <ele>683</ele>
        <time>2015-10-25T08:34:49Z</time>
      </trkpt>
      <trkpt lat="45.37695" lon="2.37392">
        <ele>689</ele>
        <time>2015-10-25T08:34:56Z</time>
      </trkpt>
      <trkpt lat="45.37693" lon="2.37394">
        <ele>689</ele>
        <time>2015-10-25T08:35:03Z</time>
      </trkpt>
      <trkpt lat="45.37689" lon="2.37393">
        <ele>687</ele>
        <time>2015-10-25T08:35:10Z</time>
      </trkpt>
      <trkpt lat="45.37686" lon="2.37394">
        <ele>694</ele>
        <time>2015-10-25T08:35:17Z</time>
      </trkpt>
      <trkpt lat="45.37682" lon="2.37394">
        <ele>694</ele>
        <time>2015-10-25T08:35:24Z</time>
      </trkpt>
      <trkpt lat="45.37678" lon="2.37397">
        <ele>694</ele>
        <time>2015-10-25T08:35:31Z</time>
      </trkpt>
      <trkpt lat="45.37677" lon="2.37398">
        <ele>695</ele>
        <time>2015-10-25T08:35:38Z</time>
      </trkpt>
      <trkpt lat="45.37676" lon="2.37399">
        <ele>701</ele>
        <time>2015-10-25T08:35:46Z</time>
      </trkpt>
      <trkpt lat="45.37673" lon="2.37399">
        <ele>699</ele>
        <time>2015-10-25T08:35:53Z</time>
      </trkpt>
      <trkpt lat="45.37672" lon="2.37399">
        <ele>699</ele>
        <time>2015-10-25T08:35:55Z</time>
      </trkpt>
      <trkpt lat="45.37667" lon="2.37399">
        <ele>695</ele>
        <time>2015-10-25T08:36:02Z</time>
      </trkpt>
      <trkpt lat="45.37664" lon="2.37399">
        <ele>688</ele>
        <time>2015-10-25T08:36:09Z</time>
      </trkpt>
      <trkpt lat="45.37662" lon="2.37404">
        <ele>694</ele>
        <time>2015-10-25T08:36:16Z</time>
      </trkpt>
      <trkpt lat="45.3766" lon="2.37405">
        <ele>696</ele>
        <time>2015-10-25T08:36:23Z</time>
      </trkpt>
      <trkpt lat="45.37661" lon="2.37412">
        <ele>693</ele>
        <time>2015-10-25T08:36:31Z</time>
      </trkpt>
      <trkpt lat="45.37661" lon="2.37423">
        <ele>700</ele>
        <time>2015-10-25T08:36:37Z</time>
      </trkpt>
      <trkpt lat="45.3766" lon="2.37432">
        <ele>698</ele>
        <time>2015-10-25T08:36:44Z</time>
      </trkpt>
      <trkpt lat="45.37657" lon="2.37442">
        <ele>693</ele>
        <time>2015-10-25T08:36:51Z</time>
      </trkpt>
      <trkpt lat="45.37656" lon="2.37452">
        <ele>688</ele>
        <time>2015-10-25T08:36:58Z</time>
      </trkpt>
      <trkpt lat="45.37656" lon="2.37458">
        <ele>701</ele>
        <time>2015-10-25T08:37:05Z</time>
      </trkpt>
      <trkpt lat="45.37655" lon="2.37465">
        <ele>702</ele>
        <time>2015-10-25T08:37:12Z</time>
      </trkpt>
      <trkpt lat="45.37653" lon="2.37475">
        <ele>699</ele>
        <time>2015-10-25T08:37:19Z</time>
      </trkpt>
      <trkpt lat="45.37653" lon="2.37484">
        <ele>707</ele>
        <time>2015-10-25T08:37:26Z</time>
      </trkpt>
      <trkpt lat="45.37654" lon="2.3749">
        <ele>706</ele>
        <time>2015-10-25T08:37:33Z</time>
      </trkpt>
      <trkpt lat="45.37655" lon="2.375">
        <ele>703</ele>
        <time>2015-10-25T08:37:40Z</time>
      </trkpt>
      <trkpt lat="45.37655" lon="2.37512">
        <ele>717</ele>
        <time>2015-10-25T08:37:47Z</time>
      </trkpt>
      <trkpt lat="45.37656" lon="2.37521">
        <ele>716</ele>
        <time>2015-10-25T08:37:54Z</time>
      </trkpt>
      <trkpt lat="45.37657" lon="2.37531">
        <ele>715</ele>
        <time>2015-10-25T08:38:01Z</time>
      </trkpt>
      <trkpt lat="45.37658" lon="2.3754">
        <ele>704</ele>
        <time>2015-10-25T08:38:08Z</time>
      </trkpt>
      <trkpt lat="45.3766" lon="2.37549">
        <ele>718</ele>
        <time>2015-10-25T08:38:15Z</time>
      </trkpt>
      <trkpt lat="45.37662" lon="2.37558">
        <ele>717</ele>
        <time>2015-10-25T08:38:22Z</time>
      </trkpt>
      <trkpt lat="45.37661" lon="2.37565">
        <ele>713</ele>
        <time>2015-10-25T08:38:29Z</time>
      </trkpt>
      <trkpt lat="45.37663" lon="2.37574">
        <ele>723</ele>
        <time>2015-10-25T08:38:36Z</time>
      </trkpt>
      <trkpt lat="45.37663" lon="2.37579">
        <ele>719</ele>
        <time>2015-10-25T08:38:43Z</time>
      </trkpt>
      <trkpt lat="45.37662" lon="2.37588">
        <ele>707</ele>
        <time>2015-10-25T08:38:50Z</time>
      </trkpt>
      <trkpt lat="45.37663" lon="2.37599">
        <ele>721</ele>
        <time>2015-10-25T08:38:57Z</time>
      </trkpt>
      <trkpt lat="45.37662" lon="2.37608">
        <ele>721</ele>
        <time>2015-10-25T08:39:04Z</time>
      </trkpt>
      <trkpt lat="45.37661" lon="2.37611">
        <ele>716</ele>
        <time>2015-10-25T08:39:11Z</time>
      </trkpt>
      <trkpt lat="45.37656" lon="2.37613">
        <ele>708</ele>
        <time>2015-10-25T08:39:18Z</time>
      </trkpt>
      <trkpt lat="45.37653" lon="2.37617">
        <ele>722</ele>
        <time>2015-10-25T08:39:25Z</time>
      </trkpt>
      <trkpt lat="45.37652" lon="2.37618">
        <ele>711</ele>
        <time>2015-10-25T08:39:28Z</time>
      </trkpt>
      <trkpt lat="45.37648" lon="2.37625">
        <ele>712</ele>
        <time>2015-10-25T08:39:40Z</time>
      </trkpt>
      <trkpt lat="45.37644" lon="2.37634">
        <ele>724</ele>
        <time>2015-10-25T08:39:47Z</time>
      </trkpt>
      <trkpt lat="45.37642" lon="2.37638">
        <ele>725</ele>
        <time>2015-10-25T08:39:54Z</time>
      </trkpt>
      <trkpt lat="45.37639" lon="2.37643">
        <ele>725</ele>
        <time>2015-10-25T08:40:01Z</time>
      </trkpt>
      <trkpt lat="45.37636" lon="2.37647">
        <ele>719</ele>
        <time>2015-10-25T08:40:08Z</time>
      </trkpt>
      <trkpt lat="45.37634" lon="2.37654">
        <ele>730</ele>
        <time>2015-10-25T08:40:15Z</time>
      </trkpt>
      <trkpt lat="45.37632" lon="2.37661">
        <ele>730</ele>
        <time>2015-10-25T08:40:22Z</time>
      </trkpt>
      <trkpt lat="45.37631" lon="2.37669">
        <ele>730</ele>
        <time>2015-10-25T08:40:29Z</time>
      </trkpt>
      <trkpt lat="45.37632" lon="2.37677">
        <ele>739</ele>
        <time>2015-10-25T08:40:36Z</time>
      </trkpt>
      <trkpt lat="45.37633" lon="2.37686">
        <ele>738</ele>
        <time>2015-10-25T08:40:43Z</time>
      </trkpt>
      <trkpt lat="45.37632" lon="2.37695">
        <ele>737</ele>
        <time>2015-10-25T08:40:50Z</time>
      </trkpt>
      <trkpt lat="45.37629" lon="2.37705">
        <ele>741</ele>
        <time>2015-10-25T08:40:57Z</time>
      </trkpt>
      <trkpt lat="45.37624" lon="2.37711">
        <ele>743</ele>
        <time>2015-10-25T08:41:04Z</time>
      </trkpt>
      <trkpt lat="45.37618" lon="2.37716">
        <ele>742</ele>
        <time>2015-10-25T08:41:11Z</time>
      </trkpt>
      <trkpt lat="45.37618" lon="2.37718">
        <ele>739</ele>
        <time>2015-10-25T08:41:18Z</time>
      </trkpt>
      <trkpt lat="45.37618" lon="2.37718">
        <ele>741</ele>
        <time>2015-10-25T08:41:21Z</time>
      </trkpt>
      <trkpt lat="45.37623" lon="2.37713">
        <ele>741</ele>
        <time>2015-10-25T08:42:07Z</time>
      </trkpt>
      <trkpt lat="45.37631" lon="2.3771">
        <ele>735</ele>
        <time>2015-10-25T08:42:12Z</time>
      </trkpt>
      <trkpt lat="45.37639" lon="2.37711">
        <ele>733</ele>
        <time>2015-10-25T08:42:18Z</time>
      </trkpt>
      <trkpt lat="45.37644" lon="2.37713">
        <ele>742</ele>
        <time>2015-10-25T08:42:25Z</time>
      </trkpt>
      <trkpt lat="45.37644" lon="2.37714">
        <ele>737</ele>
        <time>2015-10-25T08:42:31Z</time>
      </trkpt>
      <trkpt lat="45.37644" lon="2.37715">
        <ele>742</ele>
        <time>2015-10-25T08:42:41Z</time>
      </trkpt>
      <trkpt lat="45.37644" lon="2.37715">
        <ele>737</ele>
        <time>2015-10-25T08:42:42Z</time>
      </trkpt>
      <trkpt lat="45.37647" lon="2.37715">
        <ele>740</ele>
        <time>2015-10-25T08:42:52Z</time>
      </trkpt>
      <trkpt lat="45.37646" lon="2.37711">
        <ele>743</ele>
        <time>2015-10-25T08:42:59Z</time>
      </trkpt>
      <trkpt lat="45.37648" lon="2.37707">
        <ele>743</ele>
        <time>2015-10-25T08:43:06Z</time>
      </trkpt>
      <trkpt lat="45.37649" lon="2.37706">
        <ele>742</ele>
        <time>2015-10-25T08:43:13Z</time>
      </trkpt>
      <trkpt lat="45.37645" lon="2.37709">
        <ele>742</ele>
        <time>2015-10-25T08:43:45Z</time>
      </trkpt>
      <trkpt lat="45.37644" lon="2.37711">
        <ele>738</ele>
        <time>2015-10-25T08:43:49Z</time>
      </trkpt>
      <trkpt lat="45.37641" lon="2.37712">
        <ele>738</ele>
        <time>2015-10-25T08:43:56Z</time>
      </trkpt>
      <trkpt lat="45.37632" lon="2.3771">
        <ele>735</ele>
        <time>2015-10-25T08:44:01Z</time>
      </trkpt>
      <trkpt lat="45.37624" lon="2.37711">
        <ele>735</ele>
        <time>2015-10-25T08:44:06Z</time>
      </trkpt>
      <trkpt lat="45.37618" lon="2.37716">
        <ele>734</ele>
        <time>2015-10-25T08:44:11Z</time>
      </trkpt>
      <trkpt lat="45.37615" lon="2.37715">
        <ele>736</ele>
        <time>2015-10-25T08:44:18Z</time>
      </trkpt>
      <trkpt lat="45.37608" lon="2.37712">
        <ele>736</ele>
        <time>2015-10-25T08:44:25Z</time>
      </trkpt>
      <trkpt lat="45.376" lon="2.37708">
        <ele>732</ele>
        <time>2015-10-25T08:44:30Z</time>
      </trkpt>
      <trkpt lat="45.37592" lon="2.37707">
        <ele>738</ele>
        <time>2015-10-25T08:44:35Z</time>
      </trkpt>
      <trkpt lat="45.37583" lon="2.37708">
        <ele>735</ele>
        <time>2015-10-25T08:44:40Z</time>
      </trkpt>
      <trkpt lat="45.37576" lon="2.37707">
        <ele>737</ele>
        <time>2015-10-25T08:44:44Z</time>
      </trkpt>
      <trkpt lat="45.37568" lon="2.37708">
        <ele>734</ele>
        <time>2015-10-25T08:44:48Z</time>
      </trkpt>
      <trkpt lat="45.37561" lon="2.37707">
        <ele>730</ele>
        <time>2015-10-25T08:44:53Z</time>
      </trkpt>
      <trkpt lat="45.37553" lon="2.37701">
        <ele>731</ele>
        <time>2015-10-25T08:44:58Z</time>
      </trkpt>
      <trkpt lat="45.37547" lon="2.37693">
        <ele>728</ele>
        <time>2015-10-25T08:45:03Z</time>
      </trkpt>
      <trkpt lat="45.37541" lon="2.37688">
        <ele>734</ele>
        <time>2015-10-25T08:45:07Z</time>
      </trkpt>
      <trkpt lat="45.37538" lon="2.37678">
        <ele>731</ele>
        <time>2015-10-25T08:45:12Z</time>
      </trkpt>
      <trkpt lat="45.37539" lon="2.37667">
        <ele>734</ele>
        <time>2015-10-25T08:45:18Z</time>
      </trkpt>
      <trkpt lat="45.37541" lon="2.37655">
        <ele>731</ele>
        <time>2015-10-25T08:45:23Z</time>
      </trkpt>
      <trkpt lat="45.37545" lon="2.37646">
        <ele>731</ele>
        <time>2015-10-25T08:45:28Z</time>
      </trkpt>
      <trkpt lat="45.3755" lon="2.37635">
        <ele>721</ele>
        <time>2015-10-25T08:45:32Z</time>
      </trkpt>
      <trkpt lat="45.37551" lon="2.37623">
        <ele>720</ele>
        <time>2015-10-25T08:45:37Z</time>
      </trkpt>
      <trkpt lat="45.37551" lon="2.37613">
        <ele>726</ele>
        <time>2015-10-25T08:45:41Z</time>
      </trkpt>
      <trkpt lat="45.37552" lon="2.37602">
        <ele>726</ele>
        <time>2015-10-25T08:45:44Z</time>
      </trkpt>
      <trkpt lat="45.37556" lon="2.37591">
        <ele>717</ele>
        <time>2015-10-25T08:45:47Z</time>
      </trkpt>
      <trkpt lat="45.37558" lon="2.37579">
        <ele>723</ele>
        <time>2015-10-25T08:45:50Z</time>
      </trkpt>
      <trkpt lat="45.37564" lon="2.37568">
        <ele>725</ele>
        <time>2015-10-25T08:45:55Z</time>
      </trkpt>
      <trkpt lat="45.3757" lon="2.37558">
        <ele>718</ele>
        <time>2015-10-25T08:45:59Z</time>
      </trkpt>
      <trkpt lat="45.37572" lon="2.37546">
        <ele>723</ele>
        <time>2015-10-25T08:46:03Z</time>
      </trkpt>
      <trkpt lat="45.37568" lon="2.37537">
        <ele>715</ele>
        <time>2015-10-25T08:46:07Z</time>
      </trkpt>
      <trkpt lat="45.37563" lon="2.37524">
        <ele>716</ele>
        <time>2015-10-25T08:46:10Z</time>
      </trkpt>
      <trkpt lat="45.37561" lon="2.37512">
        <ele>715</ele>
        <time>2015-10-25T08:46:13Z</time>
      </trkpt>
      <trkpt lat="45.37564" lon="2.37502">
        <ele>711</ele>
        <time>2015-10-25T08:46:19Z</time>
      </trkpt>
      <trkpt lat="45.37565" lon="2.37496">
        <ele>710</ele>
        <time>2015-10-25T08:46:26Z</time>
      </trkpt>
      <trkpt lat="45.37565" lon="2.37483">
        <ele>712</ele>
        <time>2015-10-25T08:46:31Z</time>
      </trkpt>
      <trkpt lat="45.37562" lon="2.37473">
        <ele>714</ele>
        <time>2015-10-25T08:46:34Z</time>
      </trkpt>
      <trkpt lat="45.37555" lon="2.37464">
        <ele>710</ele>
        <time>2015-10-25T08:46:37Z</time>
      </trkpt>
      <trkpt lat="45.37545" lon="2.37457">
        <ele>641</ele>
        <time>2015-10-25T08:46:40Z</time>
      </trkpt>
      <trkpt lat="45.37536" lon="2.37453">
        <ele>642</ele>
        <time>2015-10-25T08:46:42Z</time>
      </trkpt>
      <trkpt lat="45.37528" lon="2.37451">
        <ele>662</ele>
        <time>2015-10-25T08:46:44Z</time>
      </trkpt>
      <trkpt lat="45.37519" lon="2.37448">
        <ele>683</ele>
        <time>2015-10-25T08:46:46Z</time>
      </trkpt>
      <trkpt lat="45.37512" lon="2.37444">
        <ele>693</ele>
        <time>2015-10-25T08:46:48Z</time>
      </trkpt>
      <trkpt lat="45.37506" lon="2.37438">
        <ele>695</ele>
        <time>2015-10-25T08:46:50Z</time>
      </trkpt>
      <trkpt lat="45.375" lon="2.37431">
        <ele>637</ele>
        <time>2015-10-25T08:46:52Z</time>
      </trkpt>
      <trkpt lat="45.37494" lon="2.37423">
        <ele>651</ele>
        <time>2015-10-25T08:46:54Z</time>
      </trkpt>
      <trkpt lat="45.37489" lon="2.37416">
        <ele>668</ele>
        <time>2015-10-25T08:46:56Z</time>
      </trkpt>
      <trkpt lat="45.37484" lon="2.37404">
        <ele>686</ele>
        <time>2015-10-25T08:46:59Z</time>
      </trkpt>
      <trkpt lat="45.37479" lon="2.37398">
        <ele>693</ele>
        <time>2015-10-25T08:47:01Z</time>
      </trkpt>
      <trkpt lat="45.3747" lon="2.37396">
        <ele>660</ele>
        <time>2015-10-25T08:47:04Z</time>
      </trkpt>
      <trkpt lat="45.37462" lon="2.37392">
        <ele>678</ele>
        <time>2015-10-25T08:47:07Z</time>
      </trkpt>
      <trkpt lat="45.37452" lon="2.37391">
        <ele>686</ele>
        <time>2015-10-25T08:47:10Z</time>
      </trkpt>
      <trkpt lat="45.37442" lon="2.37392">
        <ele>648</ele>
        <time>2015-10-25T08:47:13Z</time>
      </trkpt>
      <trkpt lat="45.37434" lon="2.3739">
        <ele>663</ele>
        <time>2015-10-25T08:47:15Z</time>
      </trkpt>
      <trkpt lat="45.37427" lon="2.37389">
        <ele>676</ele>
        <time>2015-10-25T08:47:17Z</time>
      </trkpt>
      <trkpt lat="45.37418" lon="2.37389">
        <ele>685</ele>
        <time>2015-10-25T08:47:20Z</time>
      </trkpt>
      <trkpt lat="45.3741" lon="2.37389">
        <ele>644</ele>
        <time>2015-10-25T08:47:23Z</time>
      </trkpt>
      <trkpt lat="45.37403" lon="2.3739">
        <ele>656</ele>
        <time>2015-10-25T08:47:26Z</time>
      </trkpt>
      <trkpt lat="45.37393" lon="2.3739">
        <ele>663</ele>
        <time>2015-10-25T08:47:29Z</time>
      </trkpt>
      <trkpt lat="45.37385" lon="2.37393">
        <ele>667</ele>
        <time>2015-10-25T08:47:31Z</time>
      </trkpt>
      <trkpt lat="45.37376" lon="2.37395">
        <ele>636</ele>
        <time>2015-10-25T08:47:33Z</time>
      </trkpt>
      <trkpt lat="45.37367" lon="2.37396">
        <ele>644</ele>
        <time>2015-10-25T08:47:35Z</time>
      </trkpt>
      <trkpt lat="45.37357" lon="2.37399">
        <ele>650</ele>
        <time>2015-10-25T08:47:37Z</time>
      </trkpt>
      <trkpt lat="45.37349" lon="2.37401">
        <ele>649</ele>
        <time>2015-10-25T08:47:39Z</time>
      </trkpt>
      <trkpt lat="45.37337" lon="2.37406">
        <ele>652</ele>
        <time>2015-10-25T08:47:42Z</time>
      </trkpt>
      <trkpt lat="45.37328" lon="2.37412">
        <ele>652</ele>
        <time>2015-10-25T08:47:45Z</time>
      </trkpt>
      <trkpt lat="45.37321" lon="2.37418">
        <ele>643</ele>
        <time>2015-10-25T08:47:48Z</time>
      </trkpt>
      <trkpt lat="45.37312" lon="2.37428">
        <ele>643</ele>
        <time>2015-10-25T08:47:51Z</time>
      </trkpt>
      <trkpt lat="45.37306" lon="2.37434">
        <ele>643</ele>
        <time>2015-10-25T08:47:53Z</time>
      </trkpt>
      <trkpt lat="45.37298" lon="2.37438">
        <ele>641</ele>
        <time>2015-10-25T08:47:55Z</time>
      </trkpt>
      <trkpt lat="45.37292" lon="2.37444">
        <ele>639</ele>
        <time>2015-10-25T08:47:57Z</time>
      </trkpt>
      <trkpt lat="45.37286" lon="2.37453">
        <ele>640</ele>
        <time>2015-10-25T08:47:59Z</time>
      </trkpt>
      <trkpt lat="45.37282" lon="2.37464">
        <ele>638</ele>
        <time>2015-10-25T08:48:01Z</time>
      </trkpt>
      <trkpt lat="45.37278" lon="2.37475">
        <ele>637</ele>
        <time>2015-10-25T08:48:03Z</time>
      </trkpt>
      <trkpt lat="45.37273" lon="2.37485">
        <ele>635</ele>
        <time>2015-10-25T08:48:05Z</time>
      </trkpt>
      <trkpt lat="45.37268" lon="2.37498">
        <ele>642</ele>
        <time>2015-10-25T08:48:08Z</time>
      </trkpt>
      <trkpt lat="45.37265" lon="2.3751">
        <ele>641</ele>
        <time>2015-10-25T08:48:10Z</time>
      </trkpt>
      <trkpt lat="45.37262" lon="2.37523">
        <ele>639</ele>
        <time>2015-10-25T08:48:12Z</time>
      </trkpt>
      <trkpt lat="45.37259" lon="2.37537">
        <ele>638</ele>
        <time>2015-10-25T08:48:14Z</time>
      </trkpt>
      <trkpt lat="45.37256" lon="2.37549">
        <ele>640</ele>
        <time>2015-10-25T08:48:16Z</time>
      </trkpt>
      <trkpt lat="45.37254" lon="2.37563">
        <ele>641</ele>
        <time>2015-10-25T08:48:19Z</time>
      </trkpt>
      <trkpt lat="45.37251" lon="2.37576">
        <ele>643</ele>
        <time>2015-10-25T08:48:22Z</time>
      </trkpt>
      <trkpt lat="45.37248" lon="2.37589">
        <ele>643</ele>
        <time>2015-10-25T08:48:26Z</time>
      </trkpt>
      <trkpt lat="45.37246" lon="2.37601">
        <ele>644</ele>
        <time>2015-10-25T08:48:27Z</time>
      </trkpt>
      <trkpt lat="45.37243" lon="2.37617">
        <ele>643</ele>
        <time>2015-10-25T08:48:29Z</time>
      </trkpt>
      <trkpt lat="45.37238" lon="2.37642">
        <ele>644</ele>
        <time>2015-10-25T08:48:31Z</time>
      </trkpt>
      <trkpt lat="45.37235" lon="2.37655">
        <ele>647</ele>
        <time>2015-10-25T08:48:33Z</time>
      </trkpt>
      <trkpt lat="45.37232" lon="2.37666">
        <ele>647</ele>
        <time>2015-10-25T08:48:35Z</time>
      </trkpt>
      <trkpt lat="45.37233" lon="2.37679">
        <ele>643</ele>
        <time>2015-10-25T08:48:38Z</time>
      </trkpt>
      <trkpt lat="45.37233" lon="2.37691">
        <ele>642</ele>
        <time>2015-10-25T08:48:40Z</time>
      </trkpt>
      <trkpt lat="45.37231" lon="2.37702">
        <ele>640</ele>
        <time>2015-10-25T08:48:42Z</time>
      </trkpt>
      <trkpt lat="45.3723" lon="2.37714">
        <ele>641</ele>
        <time>2015-10-25T08:48:44Z</time>
      </trkpt>
      <trkpt lat="45.3723" lon="2.37726">
        <ele>640</ele>
        <time>2015-10-25T08:48:46Z</time>
      </trkpt>
      <trkpt lat="45.37229" lon="2.3774">
        <ele>641</ele>
        <time>2015-10-25T08:48:48Z</time>
      </trkpt>
      <trkpt lat="45.37227" lon="2.37753">
        <ele>641</ele>
        <time>2015-10-25T08:48:50Z</time>
      </trkpt>
      <trkpt lat="45.37227" lon="2.37766">
        <ele>638</ele>
        <time>2015-10-25T08:48:52Z</time>
      </trkpt>
      <trkpt lat="45.37228" lon="2.3778">
        <ele>637</ele>
        <time>2015-10-25T08:48:54Z</time>
      </trkpt>
      <trkpt lat="45.37228" lon="2.37793">
        <ele>634</ele>
        <time>2015-10-25T08:48:56Z</time>
      </trkpt>
      <trkpt lat="45.37229" lon="2.37805">
        <ele>638</ele>
        <time>2015-10-25T08:48:58Z</time>
      </trkpt>
      <trkpt lat="45.37229" lon="2.37818">
        <ele>636</ele>
        <time>2015-10-25T08:49:00Z</time>
      </trkpt>
      <trkpt lat="45.37231" lon="2.37831">
        <ele>637</ele>
        <time>2015-10-25T08:49:02Z</time>
      </trkpt>
      <trkpt lat="45.37235" lon="2.37844">
        <ele>636</ele>
        <time>2015-10-25T08:49:04Z</time>
      </trkpt>
      <trkpt lat="45.37239" lon="2.37857">
        <ele>637</ele>
        <time>2015-10-25T08:49:06Z</time>
      </trkpt>
      <trkpt lat="45.37242" lon="2.3787">
        <ele>641</ele>
        <time>2015-10-25T08:49:08Z</time>
      </trkpt>
      <trkpt lat="45.37245" lon="2.37883">
        <ele>641</ele>
        <time>2015-10-25T08:49:10Z</time>
      </trkpt>
      <trkpt lat="45.37248" lon="2.37895">
        <ele>640</ele>
        <time>2015-10-25T08:49:12Z</time>
      </trkpt>
      <trkpt lat="45.3725" lon="2.37908">
        <ele>641</ele>
        <time>2015-10-25T08:49:13Z</time>
      </trkpt>
      <trkpt lat="45.37253" lon="2.37924">
        <ele>641</ele>
        <time>2015-10-25T08:49:15Z</time>
      </trkpt>
      <trkpt lat="45.37256" lon="2.37939">
        <ele>642</ele>
        <time>2015-10-25T08:49:18Z</time>
      </trkpt>
      <trkpt lat="45.37261" lon="2.37956">
        <ele>640</ele>
        <time>2015-10-25T08:49:20Z</time>
      </trkpt>
      <trkpt lat="45.37265" lon="2.37973">
        <ele>640</ele>
        <time>2015-10-25T08:49:22Z</time>
      </trkpt>
      <trkpt lat="45.37268" lon="2.37982">
        <ele>640</ele>
        <time>2015-10-25T08:49:23Z</time>
      </trkpt>
      <trkpt lat="45.37271" lon="2.37998">
        <ele>637</ele>
        <time>2015-10-25T08:49:25Z</time>
      </trkpt>
      <trkpt lat="45.37275" lon="2.38012">
        <ele>636</ele>
        <time>2015-10-25T08:49:28Z</time>
      </trkpt>
      <trkpt lat="45.37276" lon="2.38025">
        <ele>635</ele>
        <time>2015-10-25T08:49:29Z</time>
      </trkpt>
      <trkpt lat="45.37281" lon="2.3804">
        <ele>635</ele>
        <time>2015-10-25T08:49:31Z</time>
      </trkpt>
      <trkpt lat="45.37286" lon="2.38052">
        <ele>638</ele>
        <time>2015-10-25T08:49:33Z</time>
      </trkpt>
      <trkpt lat="45.37293" lon="2.38063">
        <ele>637</ele>
        <time>2015-10-25T08:49:35Z</time>
      </trkpt>
      <trkpt lat="45.373" lon="2.38072">
        <ele>635</ele>
        <time>2015-10-25T08:49:37Z</time>
      </trkpt>
      <trkpt lat="45.37308" lon="2.38082">
        <ele>635</ele>
        <time>2015-10-25T08:49:39Z</time>
      </trkpt>
      <trkpt lat="45.37316" lon="2.38093">
        <ele>637</ele>
        <time>2015-10-25T08:49:42Z</time>
      </trkpt>
      <trkpt lat="45.37324" lon="2.38102">
        <ele>641</ele>
        <time>2015-10-25T08:49:44Z</time>
      </trkpt>
      <trkpt lat="45.3733" lon="2.38111">
        <ele>642</ele>
        <time>2015-10-25T08:49:46Z</time>
      </trkpt>
      <trkpt lat="45.37339" lon="2.38118">
        <ele>640</ele>
        <time>2015-10-25T08:49:49Z</time>
      </trkpt>
      <trkpt lat="45.37347" lon="2.38121">
        <ele>640</ele>
        <time>2015-10-25T08:49:52Z</time>
      </trkpt>
      <trkpt lat="45.37354" lon="2.38125">
        <ele>641</ele>
        <time>2015-10-25T08:49:54Z</time>
      </trkpt>
      <trkpt lat="45.3736" lon="2.38131">
        <ele>644</ele>
        <time>2015-10-25T08:49:56Z</time>
      </trkpt>
      <trkpt lat="45.37367" lon="2.38137">
        <ele>647</ele>
        <time>2015-10-25T08:49:58Z</time>
      </trkpt>
      <trkpt lat="45.37374" lon="2.38145">
        <ele>647</ele>
        <time>2015-10-25T08:50:00Z</time>
      </trkpt>
      <trkpt lat="45.37379" lon="2.38155">
        <ele>647</ele>
        <time>2015-10-25T08:50:01Z</time>
      </trkpt>
      <trkpt lat="45.37384" lon="2.38166">
        <ele>645</ele>
        <time>2015-10-25T08:50:02Z</time>
      </trkpt>
      <trkpt lat="45.37388" lon="2.38175">
        <ele>643</ele>
        <time>2015-10-25T08:50:04Z</time>
      </trkpt>
      <trkpt lat="45.37393" lon="2.38189">
        <ele>643</ele>
        <time>2015-10-25T08:50:06Z</time>
      </trkpt>
      <trkpt lat="45.37398" lon="2.382">
        <ele>643</ele>
        <time>2015-10-25T08:50:08Z</time>
      </trkpt>
      <trkpt lat="45.37403" lon="2.38212">
        <ele>645</ele>
        <time>2015-10-25T08:50:11Z</time>
      </trkpt>
      <trkpt lat="45.37405" lon="2.38224">
        <ele>643</ele>
        <time>2015-10-25T08:50:12Z</time>
      </trkpt>
      <trkpt lat="45.37408" lon="2.38235">
        <ele>644</ele>
        <time>2015-10-25T08:50:14Z</time>
      </trkpt>
      <trkpt lat="45.3741" lon="2.38249">
        <ele>642</ele>
        <time>2015-10-25T08:50:17Z</time>
      </trkpt>
      <trkpt lat="45.37412" lon="2.38259">
        <ele>644</ele>
        <time>2015-10-25T08:50:19Z</time>
      </trkpt>
      <trkpt lat="45.37414" lon="2.3827">
        <ele>633</ele>
        <time>2015-10-25T08:50:22Z</time>
      </trkpt>
      <trkpt lat="45.37413" lon="2.38272">
        <ele>641</ele>
        <time>2015-10-25T08:50:30Z</time>
      </trkpt>
      <trkpt lat="45.37411" lon="2.38278">
        <ele>639</ele>
        <time>2015-10-25T08:50:36Z</time>
      </trkpt>
      <trkpt lat="45.3741" lon="2.38284">
        <ele>637</ele>
        <time>2015-10-25T08:50:43Z</time>
      </trkpt>
      <trkpt lat="45.37407" lon="2.38294">
        <ele>642</ele>
        <time>2015-10-25T08:50:50Z</time>
      </trkpt>
      <trkpt lat="45.37402" lon="2.383">
        <ele>645</ele>
        <time>2015-10-25T08:50:57Z</time>
      </trkpt>
      <trkpt lat="45.37393" lon="2.38305">
        <ele>642</ele>
        <time>2015-10-25T08:51:01Z</time>
      </trkpt>
      <trkpt lat="45.37384" lon="2.38308">
        <ele>641</ele>
        <time>2015-10-25T08:51:04Z</time>
      </trkpt>
      <trkpt lat="45.37375" lon="2.3831">
        <ele>642</ele>
        <time>2015-10-25T08:51:07Z</time>
      </trkpt>
      <trkpt lat="45.37367" lon="2.3831">
        <ele>639</ele>
        <time>2015-10-25T08:51:10Z</time>
      </trkpt>
      <trkpt lat="45.37358" lon="2.38309">
        <ele>643</ele>
        <time>2015-10-25T08:51:13Z</time>
      </trkpt>
      <trkpt lat="45.3735" lon="2.38309">
        <ele>643</ele>
        <time>2015-10-25T08:51:15Z</time>
      </trkpt>
      <trkpt lat="45.37342" lon="2.38308">
        <ele>643</ele>
        <time>2015-10-25T08:51:17Z</time>
      </trkpt>
      <trkpt lat="45.37334" lon="2.38307">
        <ele>642</ele>
        <time>2015-10-25T08:51:19Z</time>
      </trkpt>
      <trkpt lat="45.37325" lon="2.38308">
        <ele>641</ele>
        <time>2015-10-25T08:51:21Z</time>
      </trkpt>
      <trkpt lat="45.37317" lon="2.38307">
        <ele>641</ele>
        <time>2015-10-25T08:51:23Z</time>
      </trkpt>
      <trkpt lat="45.37308" lon="2.38307">
        <ele>641</ele>
        <time>2015-10-25T08:51:25Z</time>
      </trkpt>
      <trkpt lat="45.37299" lon="2.38306">
        <ele>641</ele>
        <time>2015-10-25T08:51:27Z</time>
      </trkpt>
      <trkpt lat="45.37288" lon="2.38306">
        <ele>641</ele>
        <time>2015-10-25T08:51:29Z</time>
      </trkpt>
      <trkpt lat="45.37279" lon="2.38306">
        <ele>642</ele>
        <time>2015-10-25T08:51:31Z</time>
      </trkpt>
      <trkpt lat="45.37267" lon="2.38305">
        <ele>640</ele>
        <time>2015-10-25T08:51:34Z</time>
      </trkpt>
      <trkpt lat="45.37258" lon="2.38306">
        <ele>640</ele>
        <time>2015-10-25T08:51:36Z</time>
      </trkpt>
      <trkpt lat="45.37248" lon="2.38307">
        <ele>639</ele>
        <time>2015-10-25T08:51:38Z</time>
      </trkpt>
      <trkpt lat="45.37237" lon="2.3831">
        <ele>641</ele>
        <time>2015-10-25T08:51:40Z</time>
      </trkpt>
      <trkpt lat="45.37225" lon="2.38312">
        <ele>640</ele>
        <time>2015-10-25T08:51:42Z</time>
      </trkpt>
      <trkpt lat="45.37215" lon="2.38317">
        <ele>640</ele>
        <time>2015-10-25T08:51:44Z</time>
      </trkpt>
      <trkpt lat="45.37206" lon="2.38322">
        <ele>639</ele>
        <time>2015-10-25T08:51:46Z</time>
      </trkpt>
      <trkpt lat="45.37196" lon="2.38326">
        <ele>639</ele>
        <time>2015-10-25T08:51:48Z</time>
      </trkpt>
      <trkpt lat="45.37186" lon="2.38332">
        <ele>639</ele>
        <time>2015-10-25T08:51:50Z</time>
      </trkpt>
      <trkpt lat="45.37177" lon="2.38336">
        <ele>638</ele>
        <time>2015-10-25T08:51:52Z</time>
      </trkpt>
      <trkpt lat="45.37167" lon="2.38339">
        <ele>639</ele>
        <time>2015-10-25T08:51:54Z</time>
      </trkpt>
      <trkpt lat="45.37158" lon="2.38346">
        <ele>638</ele>
        <time>2015-10-25T08:51:56Z</time>
      </trkpt>
      <trkpt lat="45.3715" lon="2.38352">
        <ele>639</ele>
        <time>2015-10-25T08:51:58Z</time>
      </trkpt>
      <trkpt lat="45.37143" lon="2.38356">
        <ele>640</ele>
        <time>2015-10-25T08:52:00Z</time>
      </trkpt>
      <trkpt lat="45.37135" lon="2.38362">
        <ele>640</ele>
        <time>2015-10-25T08:52:02Z</time>
      </trkpt>
      <trkpt lat="45.37129" lon="2.38367">
        <ele>640</ele>
        <time>2015-10-25T08:52:04Z</time>
      </trkpt>
      <trkpt lat="45.3712" lon="2.38372">
        <ele>640</ele>
        <time>2015-10-25T08:52:07Z</time>
      </trkpt>
      <trkpt lat="45.37112" lon="2.38377">
        <ele>640</ele>
        <time>2015-10-25T08:52:10Z</time>
      </trkpt>
      <trkpt lat="45.37104" lon="2.38382">
        <ele>642</ele>
        <time>2015-10-25T08:52:13Z</time>
      </trkpt>
      <trkpt lat="45.37096" lon="2.38386">
        <ele>641</ele>
        <time>2015-10-25T08:52:16Z</time>
      </trkpt>
      <trkpt lat="45.37088" lon="2.38391">
        <ele>641</ele>
        <time>2015-10-25T08:52:19Z</time>
      </trkpt>
      <trkpt lat="45.3708" lon="2.38397">
        <ele>638</ele>
        <time>2015-10-25T08:52:22Z</time>
      </trkpt>
      <trkpt lat="45.37072" lon="2.38403">
        <ele>640</ele>
        <time>2015-10-25T08:52:25Z</time>
      </trkpt>
      <trkpt lat="45.37065" lon="2.38409">
        <ele>641</ele>
        <time>2015-10-25T08:52:28Z</time>
      </trkpt>
      <trkpt lat="45.37057" lon="2.38415">
        <ele>642</ele>
        <time>2015-10-25T08:52:31Z</time>
      </trkpt>
      <trkpt lat="45.37049" lon="2.38421">
        <ele>639</ele>
        <time>2015-10-25T08:52:34Z</time>
      </trkpt>
      <trkpt lat="45.37041" lon="2.38427">
        <ele>642</ele>
        <time>2015-10-25T08:52:37Z</time>
      </trkpt>
      <trkpt lat="45.37033" lon="2.38433">
        <ele>644</ele>
        <time>2015-10-25T08:52:40Z</time>
      </trkpt>
      <trkpt lat="45.37024" lon="2.38439">
        <ele>639</ele>
        <time>2015-10-25T08:52:43Z</time>
      </trkpt>
      <trkpt lat="45.37016" lon="2.38444">
        <ele>644</ele>
        <time>2015-10-25T08:52:46Z</time>
      </trkpt>
      <trkpt lat="45.37008" lon="2.38449">
        <ele>641</ele>
        <time>2015-10-25T08:52:49Z</time>
      </trkpt>
      <trkpt lat="45.37001" lon="2.38455">
        <ele>645</ele>
        <time>2015-10-25T08:52:52Z</time>
      </trkpt>
      <trkpt lat="45.36992" lon="2.38461">
        <ele>647</ele>
        <time>2015-10-25T08:52:55Z</time>
      </trkpt>
      <trkpt lat="45.36984" lon="2.38465">
        <ele>647</ele>
        <time>2015-10-25T08:52:58Z</time>
      </trkpt>
      <trkpt lat="45.36977" lon="2.3847">
        <ele>646</ele>
        <time>2015-10-25T08:53:01Z</time>
      </trkpt>
      <trkpt lat="45.3697" lon="2.38475">
        <ele>647</ele>
        <time>2015-10-25T08:53:04Z</time>
      </trkpt>
      <trkpt lat="45.36963" lon="2.38481">
        <ele>649</ele>
        <time>2015-10-25T08:53:07Z</time>
      </trkpt>
      <trkpt lat="45.3696" lon="2.38491">
        <ele>647</ele>
        <time>2015-10-25T08:53:11Z</time>
      </trkpt>
      <trkpt lat="45.36961" lon="2.38499">
        <ele>647</ele>
        <time>2015-10-25T08:53:18Z</time>
      </trkpt>
      <trkpt lat="45.36961" lon="2.38498">
        <ele>644</ele>
        <time>2015-10-25T08:53:21Z</time>
      </trkpt>
      <trkpt lat="45.36959" lon="2.38497">
        <ele>647</ele>
        <time>2015-10-25T08:53:34Z</time>
      </trkpt>
      <trkpt lat="45.36958" lon="2.38494">
        <ele>644</ele>
        <time>2015-10-25T08:53:41Z</time>
      </trkpt>
      <trkpt lat="45.36959" lon="2.38494">
        <ele>645</ele>
        <time>2015-10-25T08:53:42Z</time>
      </trkpt>
      <trkpt lat="45.36958" lon="2.38491">
        <ele>645</ele>
        <time>2015-10-25T08:53:51Z</time>
      </trkpt>
      <trkpt lat="45.36958" lon="2.38491">
        <ele>646</ele>
        <time>2015-10-25T08:53:52Z</time>
      </trkpt>
      <trkpt lat="45.36958" lon="2.38491">
        <ele>644</ele>
        <time>2015-10-25T08:54:30Z</time>
      </trkpt>
      <trkpt lat="45.36959" lon="2.38491">
        <ele>645</ele>
        <time>2015-10-25T08:54:31Z</time>
      </trkpt>
      <trkpt lat="45.36959" lon="2.38492">
        <ele>644</ele>
        <time>2015-10-25T08:54:48Z</time>
      </trkpt>
      <trkpt lat="45.36959" lon="2.38492">
        <ele>642</ele>
        <time>2015-10-25T08:54:49Z</time>
      </trkpt>
      <trkpt lat="45.36959" lon="2.38491">
        <ele>643</ele>
        <time>2015-10-25T08:54:59Z</time>
      </trkpt>
      <trkpt lat="45.36959" lon="2.38491">
        <ele>645</ele>
        <time>2015-10-25T08:55:00Z</time>
      </trkpt>
      <trkpt lat="45.36958" lon="2.3849">
        <ele>647</ele>
        <time>2015-10-25T08:55:11Z</time>
      </trkpt>
      <trkpt lat="45.36958" lon="2.3849">
        <ele>647</ele>
        <time>2015-10-25T08:55:12Z</time>
      </trkpt>
      <trkpt lat="45.36958" lon="2.38492">
        <ele>648</ele>
        <time>2015-10-25T08:55:22Z</time>
      </trkpt>
      <trkpt lat="45.36958" lon="2.38492">
        <ele>648</ele>
        <time>2015-10-25T08:55:23Z</time>
      </trkpt>
      <trkpt lat="45.36957" lon="2.3849">
        <ele>648</ele>
        <time>2015-10-25T08:55:53Z</time>
      </trkpt>
      <trkpt lat="45.36957" lon="2.38491">
        <ele>648</ele>
        <time>2015-10-25T08:55:54Z</time>
      </trkpt>
      <trkpt lat="45.36958" lon="2.38488">
        <ele>649</ele>
        <time>2015-10-25T08:57:02Z</time>
      </trkpt>
      <trkpt lat="45.36958" lon="2.38488">
        <ele>649</ele>
        <time>2015-10-25T08:57:03Z</time>
      </trkpt>
      <trkpt lat="45.36957" lon="2.38489">
        <ele>648</ele>
        <time>2015-10-25T08:57:13Z</time>
      </trkpt>
      <trkpt lat="45.36957" lon="2.38489">
        <ele>648</ele>
        <time>2015-10-25T08:57:14Z</time>
      </trkpt>
      <trkpt lat="45.36958" lon="2.38488">
        <ele>648</ele>
        <time>2015-10-25T08:59:03Z</time>
      </trkpt>
      <trkpt lat="45.36958" lon="2.38488">
        <ele>648</ele>
        <time>2015-10-25T08:59:04Z</time>
      </trkpt>
      <trkpt lat="45.36959" lon="2.38489">
        <ele>648</ele>
        <time>2015-10-25T08:59:22Z</time>
      </trkpt>
      <trkpt lat="45.36959" lon="2.38489">
        <ele>649</ele>
        <time>2015-10-25T08:59:23Z</time>
      </trkpt>
      <trkpt lat="45.3696" lon="2.3849">
        <ele>650</ele>
        <time>2015-10-25T08:59:54Z</time>
      </trkpt>
      <trkpt lat="45.3696" lon="2.38491">
        <ele>650</ele>
        <time>2015-10-25T08:59:55Z</time>
      </trkpt>
      <trkpt lat="45.3696" lon="2.38492">
        <ele>649</ele>
        <time>2015-10-25T09:00:03Z</time>
      </trkpt>
      <trkpt lat="45.36961" lon="2.38492">
        <ele>649</ele>
        <time>2015-10-25T09:00:04Z</time>
      </trkpt>
      <trkpt lat="45.3696" lon="2.38491">
        <ele>649</ele>
        <time>2015-10-25T09:00:22Z</time>
      </trkpt>
      <trkpt lat="45.3696" lon="2.38491">
        <ele>649</ele>
        <time>2015-10-25T09:00:23Z</time>
      </trkpt>
      <trkpt lat="45.3696" lon="2.3849">
        <ele>646</ele>
        <time>2015-10-25T09:01:00Z</time>
      </trkpt>
      <trkpt lat="45.3696" lon="2.3849">
        <ele>647</ele>
        <time>2015-10-25T09:01:01Z</time>
      </trkpt>
      <trkpt lat="45.3696" lon="2.38489">
        <ele>651</ele>
        <time>2015-10-25T09:01:28Z</time>
      </trkpt>
      <trkpt lat="45.36961" lon="2.3849">
        <ele>644</ele>
        <time>2015-10-25T09:01:29Z</time>
      </trkpt>
      <trkpt lat="45.36961" lon="2.3849">
        <ele>644</ele>
        <time>2015-10-25T09:01:39Z</time>
      </trkpt>
      <trkpt lat="45.36961" lon="2.3849">
        <ele>646</ele>
        <time>2015-10-25T09:01:40Z</time>
      </trkpt>
      <trkpt lat="45.3696" lon="2.3849">
        <ele>648</ele>
        <time>2015-10-25T09:02:02Z</time>
      </trkpt>
      <trkpt lat="45.3696" lon="2.3849">
        <ele>648</ele>
        <time>2015-10-25T09:02:03Z</time>
      </trkpt>
      <trkpt lat="45.3696" lon="2.3849">
        <ele>648</ele>
        <time>2015-10-25T09:02:45Z</time>
      </trkpt>
      <trkpt lat="45.3696" lon="2.3849">
        <ele>648</ele>
        <time>2015-10-25T09:02:46Z</time>
      </trkpt>
      <trkpt lat="45.36961" lon="2.3849">
        <ele>653</ele>
        <time>2015-10-25T09:03:32Z</time>
      </trkpt>
      <trkpt lat="45.36961" lon="2.3849">
        <ele>653</ele>
        <time>2015-10-25T09:03:33Z</time>
      </trkpt>
      <trkpt lat="45.36962" lon="2.3849">
        <ele>654</ele>
        <time>2015-10-25T09:03:42Z</time>
      </trkpt>
      <trkpt lat="45.36962" lon="2.3849">
        <ele>653</ele>
        <time>2015-10-25T09:03:43Z</time>
      </trkpt>
      <trkpt lat="45.36963" lon="2.38489">
        <ele>651</ele>
        <time>2015-10-25T09:04:07Z</time>
      </trkpt>
      <trkpt lat="45.36963" lon="2.38489">
        <ele>651</ele>
        <time>2015-10-25T09:04:08Z</time>
      </trkpt>
      <trkpt lat="45.36963" lon="2.38491">
        <ele>651</ele>
        <time>2015-10-25T09:04:29Z</time>
      </trkpt>
      <trkpt lat="45.36964" lon="2.3849">
        <ele>644</ele>
        <time>2015-10-25T09:04:35Z</time>
      </trkpt>
      <trkpt lat="45.36963" lon="2.38493">
        <ele>648</ele>
        <time>2015-10-25T09:04:46Z</time>
      </trkpt>
      <trkpt lat="45.36963" lon="2.38494">
        <ele>648</ele>
        <time>2015-10-25T09:04:50Z</time>
      </trkpt>
      <trkpt lat="45.36964" lon="2.38493">
        <ele>652</ele>
        <time>2015-10-25T09:05:09Z</time>
      </trkpt>
      <trkpt lat="45.36964" lon="2.38493">
        <ele>645</ele>
        <time>2015-10-25T09:05:10Z</time>
      </trkpt>
      <trkpt lat="45.36964" lon="2.38492">
        <ele>652</ele>
        <time>2015-10-25T09:05:27Z</time>
      </trkpt>
      <trkpt lat="45.36964" lon="2.38492">
        <ele>652</ele>
        <time>2015-10-25T09:05:28Z</time>
      </trkpt>
      <trkpt lat="45.36962" lon="2.38493">
        <ele>652</ele>
        <time>2015-10-25T09:05:38Z</time>
      </trkpt>
      <trkpt lat="45.36962" lon="2.38493">
        <ele>652</ele>
        <time>2015-10-25T09:05:39Z</time>
      </trkpt>
      <trkpt lat="45.36963" lon="2.38491">
        <ele>655</ele>
        <time>2015-10-25T09:05:47Z</time>
      </trkpt>
      <trkpt lat="45.36963" lon="2.38491">
        <ele>655</ele>
        <time>2015-10-25T09:05:48Z</time>
      </trkpt>
      <trkpt lat="45.36963" lon="2.38492">
        <ele>657</ele>
        <time>2015-10-25T09:06:18Z</time>
      </trkpt>
      <trkpt lat="45.36963" lon="2.38492">
        <ele>657</ele>
        <time>2015-10-25T09:06:19Z</time>
      </trkpt>
      <trkpt lat="45.36964" lon="2.38492">
        <ele>658</ele>
        <time>2015-10-25T09:06:32Z</time>
      </trkpt>
      <trkpt lat="45.36964" lon="2.38492">
        <ele>658</ele>
        <time>2015-10-25T09:06:33Z</time>
      </trkpt>
      <trkpt lat="45.36963" lon="2.38491">
        <ele>659</ele>
        <time>2015-10-25T09:07:08Z</time>
      </trkpt>
      <trkpt lat="45.36963" lon="2.38491">
        <ele>659</ele>
        <time>2015-10-25T09:07:09Z</time>
      </trkpt>
      <trkpt lat="45.36963" lon="2.38493">
        <ele>658</ele>
        <time>2015-10-25T09:07:49Z</time>
      </trkpt>
      <trkpt lat="45.36963" lon="2.38493">
        <ele>649</ele>
        <time>2015-10-25T09:07:50Z</time>
      </trkpt>
      <trkpt lat="45.36967" lon="2.38502">
        <ele>657</ele>
        <time>2015-10-25T09:08:32Z</time>
      </trkpt>
      <trkpt lat="45.3697" lon="2.38511">
        <ele>649</ele>
        <time>2015-10-25T09:08:35Z</time>
      </trkpt>
      <trkpt lat="45.36973" lon="2.38522">
        <ele>654</ele>
        <time>2015-10-25T09:08:38Z</time>
      </trkpt>
      <trkpt lat="45.36976" lon="2.38532">
        <ele>655</ele>
        <time>2015-10-25T09:08:41Z</time>
      </trkpt>
      <trkpt lat="45.36979" lon="2.38542">
        <ele>646</ele>
        <time>2015-10-25T09:08:44Z</time>
      </trkpt>
      <trkpt lat="45.36983" lon="2.38554">
        <ele>654</ele>
        <time>2015-10-25T09:08:47Z</time>
      </trkpt>
      <trkpt lat="45.36986" lon="2.38565">
        <ele>651</ele>
        <time>2015-10-25T09:08:50Z</time>
      </trkpt>
      <trkpt lat="45.3699" lon="2.38577">
        <ele>654</ele>
        <time>2015-10-25T09:08:53Z</time>
      </trkpt>
      <trkpt lat="45.36993" lon="2.38588">
        <ele>656</ele>
        <time>2015-10-25T09:08:56Z</time>
      </trkpt>
      <trkpt lat="45.36997" lon="2.386">
        <ele>657</ele>
        <time>2015-10-25T09:08:59Z</time>
      </trkpt>
      <trkpt lat="45.37001" lon="2.38611">
        <ele>654</ele>
        <time>2015-10-25T09:09:02Z</time>
      </trkpt>
      <trkpt lat="45.37004" lon="2.38623">
        <ele>655</ele>
        <time>2015-10-25T09:09:05Z</time>
      </trkpt>
      <trkpt lat="45.37007" lon="2.38633">
        <ele>657</ele>
        <time>2015-10-25T09:09:08Z</time>
      </trkpt>
      <trkpt lat="45.37011" lon="2.38645">
        <ele>651</ele>
        <time>2015-10-25T09:09:11Z</time>
      </trkpt>
      <trkpt lat="45.37013" lon="2.38656">
        <ele>655</ele>
        <time>2015-10-25T09:09:14Z</time>
      </trkpt>
      <trkpt lat="45.37017" lon="2.38668">
        <ele>656</ele>
        <time>2015-10-25T09:09:17Z</time>
      </trkpt>
      <trkpt lat="45.37021" lon="2.38678">
        <ele>651</ele>
        <time>2015-10-25T09:09:20Z</time>
      </trkpt>
      <trkpt lat="45.37026" lon="2.38689">
        <ele>655</ele>
        <time>2015-10-25T09:09:23Z</time>
      </trkpt>
      <trkpt lat="45.37031" lon="2.38698">
        <ele>657</ele>
        <time>2015-10-25T09:09:26Z</time>
      </trkpt>
      <trkpt lat="45.37038" lon="2.38707">
        <ele>650</ele>
        <time>2015-10-25T09:09:29Z</time>
      </trkpt>
      <trkpt lat="45.37044" lon="2.38715">
        <ele>656</ele>
        <time>2015-10-25T09:09:32Z</time>
      </trkpt>
      <trkpt lat="45.3705" lon="2.38723">
        <ele>658</ele>
        <time>2015-10-25T09:09:35Z</time>
      </trkpt>
      <trkpt lat="45.37055" lon="2.38733">
        <ele>659</ele>
        <time>2015-10-25T09:09:38Z</time>
      </trkpt>
      <trkpt lat="45.37058" lon="2.38744">
        <ele>656</ele>
        <time>2015-10-25T09:09:41Z</time>
      </trkpt>
      <trkpt lat="45.37062" lon="2.38754">
        <ele>658</ele>
        <time>2015-10-25T09:09:44Z</time>
      </trkpt>
      <trkpt lat="45.37062" lon="2.38765">
        <ele>660</ele>
        <time>2015-10-25T09:09:47Z</time>
      </trkpt>
      <trkpt lat="45.37062" lon="2.38775">
        <ele>655</ele>
        <time>2015-10-25T09:09:50Z</time>
      </trkpt>
      <trkpt lat="45.37063" lon="2.38786">
        <ele>656</ele>
        <time>2015-10-25T09:09:53Z</time>
      </trkpt>
      <trkpt lat="45.37063" lon="2.38797">
        <ele>658</ele>
        <time>2015-10-25T09:09:56Z</time>
      </trkpt>
      <trkpt lat="45.37064" lon="2.38808">
        <ele>650</ele>
        <time>2015-10-25T09:09:59Z</time>
      </trkpt>
      <trkpt lat="45.37066" lon="2.38818">
        <ele>657</ele>
        <time>2015-10-25T09:10:02Z</time>
      </trkpt>
      <trkpt lat="45.37068" lon="2.38828">
        <ele>659</ele>
        <time>2015-10-25T09:10:05Z</time>
      </trkpt>
      <trkpt lat="45.37071" lon="2.38838">
        <ele>662</ele>
        <time>2015-10-25T09:10:08Z</time>
      </trkpt>
      <trkpt lat="45.37075" lon="2.38847">
        <ele>657</ele>
        <time>2015-10-25T09:10:11Z</time>
      </trkpt>
      <trkpt lat="45.3708" lon="2.38855">
        <ele>661</ele>
        <time>2015-10-25T09:10:14Z</time>
      </trkpt>
      <trkpt lat="45.37085" lon="2.38865">
        <ele>663</ele>
        <time>2015-10-25T09:10:18Z</time>
      </trkpt>
      <trkpt lat="45.37089" lon="2.38875">
        <ele>662</ele>
        <time>2015-10-25T09:10:22Z</time>
      </trkpt>
      <trkpt lat="45.37091" lon="2.38885">
        <ele>665</ele>
        <time>2015-10-25T09:10:26Z</time>
      </trkpt>
      <trkpt lat="45.37093" lon="2.38896">
        <ele>651</ele>
        <time>2015-10-25T09:10:30Z</time>
      </trkpt>
      <trkpt lat="45.37095" lon="2.38907">
        <ele>664</ele>
        <time>2015-10-25T09:10:34Z</time>
      </trkpt>
      <trkpt lat="45.37097" lon="2.3892">
        <ele>667</ele>
        <time>2015-10-25T09:10:38Z</time>
      </trkpt>
      <trkpt lat="45.37097" lon="2.38933">
        <ele>661</ele>
        <time>2015-10-25T09:10:42Z</time>
      </trkpt>
      <trkpt lat="45.37096" lon="2.38943">
        <ele>665</ele>
        <time>2015-10-25T09:10:45Z</time>
      </trkpt>
      <trkpt lat="45.37094" lon="2.38954">
        <ele>667</ele>
        <time>2015-10-25T09:10:48Z</time>
      </trkpt>
      <trkpt lat="45.37091" lon="2.38964">
        <ele>662</ele>
        <time>2015-10-25T09:10:51Z</time>
      </trkpt>
      <trkpt lat="45.37088" lon="2.38974">
        <ele>671</ele>
        <time>2015-10-25T09:10:54Z</time>
      </trkpt>
      <trkpt lat="45.37085" lon="2.38985">
        <ele>674</ele>
        <time>2015-10-25T09:10:57Z</time>
      </trkpt>
      <trkpt lat="45.37081" lon="2.38996">
        <ele>660</ele>
        <time>2015-10-25T09:11:00Z</time>
      </trkpt>
      <trkpt lat="45.37078" lon="2.39008">
        <ele>668</ele>
        <time>2015-10-25T09:11:03Z</time>
      </trkpt>
      <trkpt lat="45.37075" lon="2.39019">
        <ele>672</ele>
        <time>2015-10-25T09:11:06Z</time>
      </trkpt>
      <trkpt lat="45.37074" lon="2.3903">
        <ele>651</ele>
        <time>2015-10-25T09:11:09Z</time>
      </trkpt>
      <trkpt lat="45.37072" lon="2.39042">
        <ele>660</ele>
        <time>2015-10-25T09:11:12Z</time>
      </trkpt>
      <trkpt lat="45.37071" lon="2.39053">
        <ele>661</ele>
        <time>2015-10-25T09:11:15Z</time>
      </trkpt>
      <trkpt lat="45.37072" lon="2.39067">
        <ele>666</ele>
        <time>2015-10-25T09:11:18Z</time>
      </trkpt>
      <trkpt lat="45.37075" lon="2.39079">
        <ele>660</ele>
        <time>2015-10-25T09:11:21Z</time>
      </trkpt>
      <trkpt lat="45.37079" lon="2.3909">
        <ele>666</ele>
        <time>2015-10-25T09:11:24Z</time>
      </trkpt>
      <trkpt lat="45.37082" lon="2.39104">
        <ele>667</ele>
        <time>2015-10-25T09:11:27Z</time>
      </trkpt>
      <trkpt lat="45.37085" lon="2.39118">
        <ele>648</ele>
        <time>2015-10-25T09:11:30Z</time>
      </trkpt>
      <trkpt lat="45.37085" lon="2.39132">
        <ele>661</ele>
        <time>2015-10-25T09:11:33Z</time>
      </trkpt>
      <trkpt lat="45.37083" lon="2.39146">
        <ele>665</ele>
        <time>2015-10-25T09:11:36Z</time>
      </trkpt>
      <trkpt lat="45.37081" lon="2.39161">
        <ele>663</ele>
        <time>2015-10-25T09:11:39Z</time>
      </trkpt>
      <trkpt lat="45.37079" lon="2.39171">
        <ele>650</ele>
        <time>2015-10-25T09:11:41Z</time>
      </trkpt>
      <trkpt lat="45.37076" lon="2.39185">
        <ele>657</ele>
        <time>2015-10-25T09:11:44Z</time>
      </trkpt>
      <trkpt lat="45.3707" lon="2.39199">
        <ele>659</ele>
        <time>2015-10-25T09:11:47Z</time>
      </trkpt>
      <trkpt lat="45.37066" lon="2.3921">
        <ele>658</ele>
        <time>2015-10-25T09:11:49Z</time>
      </trkpt>
      <trkpt lat="45.37063" lon="2.39221">
        <ele>648</ele>
        <time>2015-10-25T09:11:51Z</time>
      </trkpt>
      <trkpt lat="45.37059" lon="2.39231">
        <ele>654</ele>
        <time>2015-10-25T09:11:53Z</time>
      </trkpt>
      <trkpt lat="45.37056" lon="2.39241">
        <ele>656</ele>
        <time>2015-10-25T09:11:55Z</time>
      </trkpt>
      <trkpt lat="45.37054" lon="2.39252">
        <ele>657</ele>
        <time>2015-10-25T09:11:57Z</time>
      </trkpt>
      <trkpt lat="45.37051" lon="2.39262">
        <ele>639</ele>
        <time>2015-10-25T09:11:59Z</time>
      </trkpt>
      <trkpt lat="45.3705" lon="2.39274">
        <ele>648</ele>
        <time>2015-10-25T09:12:01Z</time>
      </trkpt>
      <trkpt lat="45.37047" lon="2.39286">
        <ele>653</ele>
        <time>2015-10-25T09:12:03Z</time>
      </trkpt>
      <trkpt lat="45.37044" lon="2.39299">
        <ele>657</ele>
        <time>2015-10-25T09:12:05Z</time>
      </trkpt>
      <trkpt lat="45.37042" lon="2.39311">
        <ele>659</ele>
        <time>2015-10-25T09:12:07Z</time>
      </trkpt>
      <trkpt lat="45.37039" lon="2.39324">
        <ele>659</ele>
        <time>2015-10-25T09:12:09Z</time>
      </trkpt>
      <trkpt lat="45.37036" lon="2.39335">
        <ele>640</ele>
        <time>2015-10-25T09:12:11Z</time>
      </trkpt>
      <trkpt lat="45.37035" lon="2.39348">
        <ele>649</ele>
        <time>2015-10-25T09:12:13Z</time>
      </trkpt>
      <trkpt lat="45.3704" lon="2.39358">
        <ele>654</ele>
        <time>2015-10-25T09:12:16Z</time>
      </trkpt>
      <trkpt lat="45.37047" lon="2.39355">
        <ele>637</ele>
        <time>2015-10-25T09:12:19Z</time>
      </trkpt>
      <trkpt lat="45.37055" lon="2.39346">
        <ele>647</ele>
        <time>2015-10-25T09:12:22Z</time>
      </trkpt>
      <trkpt lat="45.37064" lon="2.39339">
        <ele>651</ele>
        <time>2015-10-25T09:12:25Z</time>
      </trkpt>
      <trkpt lat="45.37073" lon="2.39333">
        <ele>655</ele>
        <time>2015-10-25T09:12:28Z</time>
      </trkpt>
      <trkpt lat="45.3708" lon="2.39327">
        <ele>637</ele>
        <time>2015-10-25T09:12:31Z</time>
      </trkpt>
      <trkpt lat="45.37089" lon="2.39321">
        <ele>633</ele>
        <time>2015-10-25T09:12:34Z</time>
      </trkpt>
      <trkpt lat="45.37098" lon="2.39315">
        <ele>646</ele>
        <time>2015-10-25T09:12:37Z</time>
      </trkpt>
      <trkpt lat="45.37106" lon="2.39311">
        <ele>650</ele>
        <time>2015-10-25T09:12:39Z</time>
      </trkpt>
      <trkpt lat="45.37116" lon="2.39306">
        <ele>654</ele>
        <time>2015-10-25T09:12:41Z</time>
      </trkpt>
      <trkpt lat="45.37125" lon="2.39299">
        <ele>657</ele>
        <time>2015-10-25T09:12:43Z</time>
      </trkpt>
      <trkpt lat="45.37132" lon="2.39294">
        <ele>637</ele>
        <time>2015-10-25T09:12:45Z</time>
      </trkpt>
      <trkpt lat="45.37139" lon="2.39289">
        <ele>650</ele>
        <time>2015-10-25T09:12:48Z</time>
      </trkpt>
      <trkpt lat="45.37147" lon="2.39284">
        <ele>658</ele>
        <time>2015-10-25T09:12:52Z</time>
      </trkpt>
      <trkpt lat="45.37153" lon="2.39295">
        <ele>637</ele>
        <time>2015-10-25T09:12:55Z</time>
      </trkpt>
      <trkpt lat="45.37161" lon="2.39306">
        <ele>646</ele>
        <time>2015-10-25T09:12:58Z</time>
      </trkpt>
      <trkpt lat="45.37166" lon="2.39314">
        <ele>650</ele>
        <time>2015-10-25T09:13:00Z</time>
      </trkpt>
      <trkpt lat="45.37173" lon="2.39322">
        <ele>652</ele>
        <time>2015-10-25T09:13:02Z</time>
      </trkpt>
      <trkpt lat="45.37179" lon="2.39329">
        <ele>637</ele>
        <time>2015-10-25T09:13:05Z</time>
      </trkpt>
      <trkpt lat="45.37187" lon="2.3933">
        <ele>646</ele>
        <time>2015-10-25T09:13:08Z</time>
      </trkpt>
      <trkpt lat="45.37195" lon="2.39328">
        <ele>649</ele>
        <time>2015-10-25T09:13:10Z</time>
      </trkpt>
      <trkpt lat="45.37203" lon="2.39325">
        <ele>653</ele>
        <time>2015-10-25T09:13:12Z</time>
      </trkpt>
      <trkpt lat="45.3721" lon="2.39323">
        <ele>652</ele>
        <time>2015-10-25T09:13:14Z</time>
      </trkpt>
      <trkpt lat="45.37219" lon="2.39321">
        <ele>632</ele>
        <time>2015-10-25T09:13:16Z</time>
      </trkpt>
      <trkpt lat="45.37226" lon="2.39315">
        <ele>639</ele>
        <time>2015-10-25T09:13:18Z</time>
      </trkpt>
      <trkpt lat="45.37233" lon="2.39309">
        <ele>644</ele>
        <time>2015-10-25T09:13:20Z</time>
      </trkpt>
      <trkpt lat="45.3724" lon="2.39302">
        <ele>632</ele>
        <time>2015-10-25T09:13:23Z</time>
      </trkpt>
      <trkpt lat="45.37248" lon="2.39296">
        <ele>641</ele>
        <time>2015-10-25T09:13:26Z</time>
      </trkpt>
      <trkpt lat="45.37255" lon="2.39291">
        <ele>643</ele>
        <time>2015-10-25T09:13:28Z</time>
      </trkpt>
      <trkpt lat="45.37261" lon="2.39283">
        <ele>630</ele>
        <time>2015-10-25T09:13:30Z</time>
      </trkpt>
      <trkpt lat="45.37269" lon="2.39276">
        <ele>635</ele>
        <time>2015-10-25T09:13:32Z</time>
      </trkpt>
      <trkpt lat="45.37276" lon="2.39273">
        <ele>639</ele>
        <time>2015-10-25T09:13:34Z</time>
      </trkpt>
      <trkpt lat="45.37287" lon="2.39268">
        <ele>640</ele>
        <time>2015-10-25T09:13:37Z</time>
      </trkpt>
      <trkpt lat="45.37296" lon="2.39266">
        <ele>627</ele>
        <time>2015-10-25T09:13:39Z</time>
      </trkpt>
      <trkpt lat="45.37303" lon="2.39263">
        <ele>630</ele>
        <time>2015-10-25T09:13:41Z</time>
      </trkpt>
      <trkpt lat="45.37313" lon="2.39256">
        <ele>635</ele>
        <time>2015-10-25T09:13:44Z</time>
      </trkpt>
      <trkpt lat="45.37321" lon="2.39252">
        <ele>638</ele>
        <time>2015-10-25T09:13:48Z</time>
      </trkpt>
      <trkpt lat="45.37329" lon="2.39248">
        <ele>630</ele>
        <time>2015-10-25T09:13:51Z</time>
      </trkpt>
      <trkpt lat="45.37337" lon="2.39241">
        <ele>633</ele>
        <time>2015-10-25T09:13:54Z</time>
      </trkpt>
      <trkpt lat="45.37344" lon="2.39236">
        <ele>634</ele>
        <time>2015-10-25T09:13:57Z</time>
      </trkpt>
      <trkpt lat="45.37353" lon="2.39232">
        <ele>627</ele>
        <time>2015-10-25T09:14:00Z</time>
      </trkpt>
      <trkpt lat="45.37362" lon="2.39225">
        <ele>631</ele>
        <time>2015-10-25T09:14:03Z</time>
      </trkpt>
      <trkpt lat="45.37371" lon="2.3922">
        <ele>631</ele>
        <time>2015-10-25T09:14:05Z</time>
      </trkpt>
      <trkpt lat="45.3738" lon="2.39215">
        <ele>633</ele>
        <time>2015-10-25T09:14:07Z</time>
      </trkpt>
      <trkpt lat="45.37386" lon="2.39211">
        <ele>627</ele>
        <time>2015-10-25T09:14:09Z</time>
      </trkpt>
      <trkpt lat="45.37393" lon="2.39205">
        <ele>629</ele>
        <time>2015-10-25T09:14:12Z</time>
      </trkpt>
      <trkpt lat="45.374" lon="2.39198">
        <ele>632</ele>
        <time>2015-10-25T09:14:15Z</time>
      </trkpt>
      <trkpt lat="45.37411" lon="2.39192">
        <ele>627</ele>
        <time>2015-10-25T09:14:18Z</time>
      </trkpt>
      <trkpt lat="45.3742" lon="2.39189">
        <ele>628</ele>
        <time>2015-10-25T09:14:20Z</time>
      </trkpt>
      <trkpt lat="45.3743" lon="2.39185">
        <ele>631</ele>
        <time>2015-10-25T09:14:22Z</time>
      </trkpt>
      <trkpt lat="45.37438" lon="2.39179">
        <ele>632</ele>
        <time>2015-10-25T09:14:24Z</time>
      </trkpt>
      <trkpt lat="45.37444" lon="2.39172">
        <ele>634</ele>
        <time>2015-10-25T09:14:26Z</time>
      </trkpt>
      <trkpt lat="45.3745" lon="2.39167">
        <ele>628</ele>
        <time>2015-10-25T09:14:28Z</time>
      </trkpt>
      <trkpt lat="45.37458" lon="2.39161">
        <ele>631</ele>
        <time>2015-10-25T09:14:31Z</time>
      </trkpt>
      <trkpt lat="45.37469" lon="2.39155">
        <ele>630</ele>
        <time>2015-10-25T09:14:34Z</time>
      </trkpt>
      <trkpt lat="45.3748" lon="2.39153">
        <ele>630</ele>
        <time>2015-10-25T09:14:36Z</time>
      </trkpt>
      <trkpt lat="45.37488" lon="2.39148">
        <ele>627</ele>
        <time>2015-10-25T09:14:38Z</time>
      </trkpt>
      <trkpt lat="45.37495" lon="2.3914">
        <ele>629</ele>
        <time>2015-10-25T09:14:40Z</time>
      </trkpt>
      <trkpt lat="45.37502" lon="2.39133">
        <ele>630</ele>
        <time>2015-10-25T09:14:42Z</time>
      </trkpt>
      <trkpt lat="45.3751" lon="2.39125">
        <ele>633</ele>
        <time>2015-10-25T09:14:44Z</time>
      </trkpt>
      <trkpt lat="45.37528" lon="2.39109">
        <ele>634</ele>
        <time>2015-10-25T09:14:46Z</time>
      </trkpt>
      <trkpt lat="45.37539" lon="2.39098">
        <ele>628</ele>
        <time>2015-10-25T09:14:48Z</time>
      </trkpt>
      <trkpt lat="45.37548" lon="2.39087">
        <ele>630</ele>
        <time>2015-10-25T09:14:50Z</time>
      </trkpt>
      <trkpt lat="45.37556" lon="2.39076">
        <ele>633</ele>
        <time>2015-10-25T09:14:52Z</time>
      </trkpt>
      <trkpt lat="45.37564" lon="2.39072">
        <ele>635</ele>
        <time>2015-10-25T09:14:53Z</time>
      </trkpt>
      <trkpt lat="45.37576" lon="2.39062">
        <ele>638</ele>
        <time>2015-10-25T09:14:55Z</time>
      </trkpt>
      <trkpt lat="45.37582" lon="2.39057">
        <ele>638</ele>
        <time>2015-10-25T09:14:56Z</time>
      </trkpt>
      <trkpt lat="45.3759" lon="2.39053">
        <ele>631</ele>
        <time>2015-10-25T09:14:58Z</time>
      </trkpt>
      <trkpt lat="45.37599" lon="2.39046">
        <ele>633</ele>
        <time>2015-10-25T09:15:00Z</time>
      </trkpt>
      <trkpt lat="45.3761" lon="2.39036">
        <ele>635</ele>
        <time>2015-10-25T09:15:02Z</time>
      </trkpt>
      <trkpt lat="45.37621" lon="2.39027">
        <ele>636</ele>
        <time>2015-10-25T09:15:04Z</time>
      </trkpt>
      <trkpt lat="45.37634" lon="2.39019">
        <ele>637</ele>
        <time>2015-10-25T09:15:06Z</time>
      </trkpt>
      <trkpt lat="45.37645" lon="2.39014">
        <ele>629</ele>
        <time>2015-10-25T09:15:08Z</time>
      </trkpt>
      <trkpt lat="45.37651" lon="2.39007">
        <ele>633</ele>
        <time>2015-10-25T09:15:10Z</time>
      </trkpt>
      <trkpt lat="45.37656" lon="2.38999">
        <ele>636</ele>
        <time>2015-10-25T09:15:13Z</time>
      </trkpt>
      <trkpt lat="45.37661" lon="2.3899">
        <ele>629</ele>
        <time>2015-10-25T09:15:17Z</time>
      </trkpt>
      <trkpt lat="45.37668" lon="2.38983">
        <ele>629</ele>
        <time>2015-10-25T09:15:22Z</time>
      </trkpt>
      <trkpt lat="45.37677" lon="2.38977">
        <ele>628</ele>
        <time>2015-10-25T09:15:26Z</time>
      </trkpt>
      <trkpt lat="45.37686" lon="2.38973">
        <ele>630</ele>
        <time>2015-10-25T09:15:29Z</time>
      </trkpt>
      <trkpt lat="45.37693" lon="2.3897">
        <ele>628</ele>
        <time>2015-10-25T09:15:32Z</time>
      </trkpt>
      <trkpt lat="45.37701" lon="2.3897">
        <ele>629</ele>
        <time>2015-10-25T09:15:36Z</time>
      </trkpt>
      <trkpt lat="45.3771" lon="2.38972">
        <ele>627</ele>
        <time>2015-10-25T09:15:40Z</time>
      </trkpt>
      <trkpt lat="45.37718" lon="2.38972">
        <ele>626</ele>
        <time>2015-10-25T09:15:43Z</time>
      </trkpt>
      <trkpt lat="45.37727" lon="2.38971">
        <ele>628</ele>
        <time>2015-10-25T09:15:46Z</time>
      </trkpt>
      <trkpt lat="45.37734" lon="2.38968">
        <ele>629</ele>
        <time>2015-10-25T09:15:48Z</time>
      </trkpt>
      <trkpt lat="45.37744" lon="2.38963">
        <ele>627</ele>
        <time>2015-10-25T09:15:50Z</time>
      </trkpt>
      <trkpt lat="45.37752" lon="2.38958">
        <ele>627</ele>
        <time>2015-10-25T09:15:52Z</time>
      </trkpt>
      <trkpt lat="45.3776" lon="2.38953">
        <ele>628</ele>
        <time>2015-10-25T09:15:54Z</time>
      </trkpt>
      <trkpt lat="45.37768" lon="2.38949">
        <ele>628</ele>
        <time>2015-10-25T09:15:56Z</time>
      </trkpt>
      <trkpt lat="45.37779" lon="2.38945">
        <ele>628</ele>
        <time>2015-10-25T09:15:57Z</time>
      </trkpt>
      <trkpt lat="45.37791" lon="2.38947">
        <ele>630</ele>
        <time>2015-10-25T09:15:59Z</time>
      </trkpt>
      <trkpt lat="45.37801" lon="2.38952">
        <ele>629</ele>
        <time>2015-10-25T09:16:01Z</time>
      </trkpt>
      <trkpt lat="45.37809" lon="2.38954">
        <ele>629</ele>
        <time>2015-10-25T09:16:03Z</time>
      </trkpt>
      <trkpt lat="45.37816" lon="2.38951">
        <ele>629</ele>
        <time>2015-10-25T09:16:05Z</time>
      </trkpt>
      <trkpt lat="45.37823" lon="2.38946">
        <ele>631</ele>
        <time>2015-10-25T09:16:07Z</time>
      </trkpt>
      <trkpt lat="45.37831" lon="2.38941">
        <ele>632</ele>
        <time>2015-10-25T09:16:09Z</time>
      </trkpt>
      <trkpt lat="45.37839" lon="2.38938">
        <ele>629</ele>
        <time>2015-10-25T09:16:11Z</time>
      </trkpt>
      <trkpt lat="45.37846" lon="2.38935">
        <ele>630</ele>
        <time>2015-10-25T09:16:13Z</time>
      </trkpt>
      <trkpt lat="45.37854" lon="2.38932">
        <ele>629</ele>
        <time>2015-10-25T09:16:15Z</time>
      </trkpt>
      <trkpt lat="45.37863" lon="2.38931">
        <ele>628</ele>
        <time>2015-10-25T09:16:17Z</time>
      </trkpt>
      <trkpt lat="45.3787" lon="2.38929">
        <ele>628</ele>
        <time>2015-10-25T09:16:19Z</time>
      </trkpt>
      <trkpt lat="45.37879" lon="2.38929">
        <ele>630</ele>
        <time>2015-10-25T09:16:21Z</time>
      </trkpt>
      <trkpt lat="45.37887" lon="2.38928">
        <ele>631</ele>
        <time>2015-10-25T09:16:23Z</time>
      </trkpt>
      <trkpt lat="45.37895" lon="2.38927">
        <ele>630</ele>
        <time>2015-10-25T09:16:25Z</time>
      </trkpt>
      <trkpt lat="45.37903" lon="2.38927">
        <ele>630</ele>
        <time>2015-10-25T09:16:27Z</time>
      </trkpt>
      <trkpt lat="45.37911" lon="2.38925">
        <ele>629</ele>
        <time>2015-10-25T09:16:29Z</time>
      </trkpt>
      <trkpt lat="45.37921" lon="2.38923">
        <ele>629</ele>
        <time>2015-10-25T09:16:32Z</time>
      </trkpt>
      <trkpt lat="45.3793" lon="2.3892">
        <ele>629</ele>
        <time>2015-10-25T09:16:35Z</time>
      </trkpt>
      <trkpt lat="45.37938" lon="2.38914">
        <ele>629</ele>
        <time>2015-10-25T09:16:39Z</time>
      </trkpt>
      <trkpt lat="45.37947" lon="2.3891">
        <ele>629</ele>
        <time>2015-10-25T09:16:43Z</time>
      </trkpt>
      <trkpt lat="45.37955" lon="2.38908">
        <ele>629</ele>
        <time>2015-10-25T09:16:46Z</time>
      </trkpt>
      <trkpt lat="45.37963" lon="2.3891">
        <ele>628</ele>
        <time>2015-10-25T09:16:49Z</time>
      </trkpt>
      <trkpt lat="45.37971" lon="2.38916">
        <ele>631</ele>
        <time>2015-10-25T09:16:53Z</time>
      </trkpt>
      <trkpt lat="45.37977" lon="2.38923">
        <ele>632</ele>
        <time>2015-10-25T09:16:56Z</time>
      </trkpt>
      <trkpt lat="45.37984" lon="2.3893">
        <ele>630</ele>
        <time>2015-10-25T09:16:59Z</time>
      </trkpt>
      <trkpt lat="45.3799" lon="2.38937">
        <ele>632</ele>
        <time>2015-10-25T09:17:02Z</time>
      </trkpt>
      <trkpt lat="45.37997" lon="2.38945">
        <ele>632</ele>
        <time>2015-10-25T09:17:05Z</time>
      </trkpt>
      <trkpt lat="45.38003" lon="2.38952">
        <ele>631</ele>
        <time>2015-10-25T09:17:08Z</time>
      </trkpt>
      <trkpt lat="45.3801" lon="2.3896">
        <ele>630</ele>
        <time>2015-10-25T09:17:11Z</time>
      </trkpt>
      <trkpt lat="45.38017" lon="2.38967">
        <ele>633</ele>
        <time>2015-10-25T09:17:14Z</time>
      </trkpt>
      <trkpt lat="45.38024" lon="2.38973">
        <ele>634</ele>
        <time>2015-10-25T09:17:17Z</time>
      </trkpt>
      <trkpt lat="45.38032" lon="2.38971">
        <ele>633</ele>
        <time>2015-10-25T09:17:21Z</time>
      </trkpt>
      <trkpt lat="45.38034" lon="2.38957">
        <ele>634</ele>
        <time>2015-10-25T09:17:24Z</time>
      </trkpt>
      <trkpt lat="45.38033" lon="2.38943">
        <ele>635</ele>
        <time>2015-10-25T09:17:26Z</time>
      </trkpt>
      <trkpt lat="45.38034" lon="2.3893">
        <ele>634</ele>
        <time>2015-10-25T09:17:28Z</time>
      </trkpt>
      <trkpt lat="45.38035" lon="2.38916">
        <ele>630</ele>
        <time>2015-10-25T09:17:30Z</time>
      </trkpt>
      <trkpt lat="45.38037" lon="2.38903">
        <ele>632</ele>
        <time>2015-10-25T09:17:32Z</time>
      </trkpt>
      <trkpt lat="45.3804" lon="2.3889">
        <ele>633</ele>
        <time>2015-10-25T09:17:34Z</time>
      </trkpt>
      <trkpt lat="45.38044" lon="2.38877">
        <ele>631</ele>
        <time>2015-10-25T09:17:36Z</time>
      </trkpt>
      <trkpt lat="45.38051" lon="2.38864">
        <ele>631</ele>
        <time>2015-10-25T09:17:38Z</time>
      </trkpt>
      <trkpt lat="45.38061" lon="2.38856">
        <ele>629</ele>
        <time>2015-10-25T09:17:40Z</time>
      </trkpt>
      <trkpt lat="45.38071" lon="2.38849">
        <ele>630</ele>
        <time>2015-10-25T09:17:42Z</time>
      </trkpt>
      <trkpt lat="45.38082" lon="2.38841">
        <ele>629</ele>
        <time>2015-10-25T09:17:44Z</time>
      </trkpt>
      <trkpt lat="45.38094" lon="2.38827">
        <ele>628</ele>
        <time>2015-10-25T09:17:46Z</time>
      </trkpt>
      <trkpt lat="45.38099" lon="2.3882">
        <ele>628</ele>
        <time>2015-10-25T09:17:47Z</time>
      </trkpt>
      <trkpt lat="45.38106" lon="2.38814">
        <ele>627</ele>
        <time>2015-10-25T09:17:48Z</time>
      </trkpt>
      <trkpt lat="45.38112" lon="2.38808">
        <ele>628</ele>
        <time>2015-10-25T09:17:49Z</time>
      </trkpt>
      <trkpt lat="45.38119" lon="2.38804">
        <ele>628</ele>
        <time>2015-10-25T09:17:50Z</time>
      </trkpt>
      <trkpt lat="45.38131" lon="2.38797">
        <ele>630</ele>
        <time>2015-10-25T09:17:52Z</time>
      </trkpt>
      <trkpt lat="45.38142" lon="2.38793">
        <ele>630</ele>
        <time>2015-10-25T09:17:54Z</time>
      </trkpt>
      <trkpt lat="45.38151" lon="2.38788">
        <ele>629</ele>
        <time>2015-10-25T09:17:56Z</time>
      </trkpt>
      <trkpt lat="45.38159" lon="2.38786">
        <ele>630</ele>
        <time>2015-10-25T09:17:58Z</time>
      </trkpt>
      <trkpt lat="45.38166" lon="2.38781">
        <ele>630</ele>
        <time>2015-10-25T09:18:00Z</time>
      </trkpt>
      <trkpt lat="45.38172" lon="2.38776">
        <ele>631</ele>
        <time>2015-10-25T09:18:02Z</time>
      </trkpt>
      <trkpt lat="45.38181" lon="2.38769">
        <ele>631</ele>
        <time>2015-10-25T09:18:05Z</time>
      </trkpt>
      <trkpt lat="45.38188" lon="2.3876">
        <ele>631</ele>
        <time>2015-10-25T09:18:08Z</time>
      </trkpt>
      <trkpt lat="45.38195" lon="2.3875">
        <ele>632</ele>
        <time>2015-10-25T09:18:11Z</time>
      </trkpt>
      <trkpt lat="45.38201" lon="2.38737">
        <ele>631</ele>
        <time>2015-10-25T09:18:14Z</time>
      </trkpt>
      <trkpt lat="45.38205" lon="2.38728">
        <ele>632</ele>
        <time>2015-10-25T09:18:16Z</time>
      </trkpt>
      <trkpt lat="45.38209" lon="2.38718">
        <ele>633</ele>
        <time>2015-10-25T09:18:18Z</time>
      </trkpt>
      <trkpt lat="45.38214" lon="2.38708">
        <ele>632</ele>
        <time>2015-10-25T09:18:20Z</time>
      </trkpt>
      <trkpt lat="45.38219" lon="2.38699">
        <ele>632</ele>
        <time>2015-10-25T09:18:22Z</time>
      </trkpt>
      <trkpt lat="45.38225" lon="2.3869">
        <ele>631</ele>
        <time>2015-10-25T09:18:24Z</time>
      </trkpt>
      <trkpt lat="45.38229" lon="2.38681">
        <ele>632</ele>
        <time>2015-10-25T09:18:26Z</time>
      </trkpt>
      <trkpt lat="45.38234" lon="2.38672">
        <ele>632</ele>
        <time>2015-10-25T09:18:28Z</time>
      </trkpt>
      <trkpt lat="45.38239" lon="2.38662">
        <ele>630</ele>
        <time>2015-10-25T09:18:30Z</time>
      </trkpt>
      <trkpt lat="45.38243" lon="2.38653">
        <ele>631</ele>
        <time>2015-10-25T09:18:32Z</time>
      </trkpt>
      <trkpt lat="45.38248" lon="2.38643">
        <ele>632</ele>
        <time>2015-10-25T09:18:34Z</time>
      </trkpt>
      <trkpt lat="45.38253" lon="2.38633">
        <ele>632</ele>
        <time>2015-10-25T09:18:36Z</time>
      </trkpt>
      <trkpt lat="45.38258" lon="2.38623">
        <ele>632</ele>
        <time>2015-10-25T09:18:38Z</time>
      </trkpt>
      <trkpt lat="45.38262" lon="2.38613">
        <ele>631</ele>
        <time>2015-10-25T09:18:40Z</time>
      </trkpt>
      <trkpt lat="45.38266" lon="2.38602">
        <ele>633</ele>
        <time>2015-10-25T09:18:42Z</time>
      </trkpt>
      <trkpt lat="45.38268" lon="2.38591">
        <ele>633</ele>
        <time>2015-10-25T09:18:44Z</time>
      </trkpt>
      <trkpt lat="45.38269" lon="2.3858">
        <ele>634</ele>
        <time>2015-10-25T09:18:46Z</time>
      </trkpt>
      <trkpt lat="45.38269" lon="2.38568">
        <ele>634</ele>
        <time>2015-10-25T09:18:48Z</time>
      </trkpt>
      <trkpt lat="45.3827" lon="2.38557">
        <ele>631</ele>
        <time>2015-10-25T09:18:50Z</time>
      </trkpt>
      <trkpt lat="45.38269" lon="2.38546">
        <ele>632</ele>
        <time>2015-10-25T09:18:52Z</time>
      </trkpt>
      <trkpt lat="45.38269" lon="2.38531">
        <ele>632</ele>
        <time>2015-10-25T09:18:54Z</time>
      </trkpt>
      <trkpt lat="45.38269" lon="2.38516">
        <ele>631</ele>
        <time>2015-10-25T09:18:56Z</time>
      </trkpt>
      <trkpt lat="45.38268" lon="2.38501">
        <ele>632</ele>
        <time>2015-10-25T09:18:58Z</time>
      </trkpt>
      <trkpt lat="45.38267" lon="2.38484">
        <ele>629</ele>
        <time>2015-10-25T09:19:00Z</time>
      </trkpt>
      <trkpt lat="45.38267" lon="2.38467">
        <ele>630</ele>
        <time>2015-10-25T09:19:02Z</time>
      </trkpt>
      <trkpt lat="45.38266" lon="2.3845">
        <ele>630</ele>
        <time>2015-10-25T09:19:04Z</time>
      </trkpt>
      <trkpt lat="45.38265" lon="2.3844">
        <ele>629</ele>
        <time>2015-10-25T09:19:05Z</time>
      </trkpt>
      <trkpt lat="45.38264" lon="2.3842">
        <ele>627</ele>
        <time>2015-10-25T09:19:07Z</time>
      </trkpt>
      <trkpt lat="45.38263" lon="2.3841">
        <ele>626</ele>
        <time>2015-10-25T09:19:08Z</time>
      </trkpt>
      <trkpt lat="45.38264" lon="2.38395">
        <ele>626</ele>
        <time>2015-10-25T09:19:10Z</time>
      </trkpt>
      <trkpt lat="45.38269" lon="2.38386">
        <ele>625</ele>
        <time>2015-10-25T09:19:13Z</time>
      </trkpt>
      <trkpt lat="45.3827" lon="2.38384">
        <ele>624</ele>
        <time>2015-10-25T09:19:20Z</time>
      </trkpt>
      <trkpt lat="45.38271" lon="2.38384">
        <ele>624</ele>
        <time>2015-10-25T09:19:25Z</time>
      </trkpt>
      <trkpt lat="45.38274" lon="2.38385">
        <ele>625</ele>
        <time>2015-10-25T09:19:32Z</time>
      </trkpt>
      <trkpt lat="45.38273" lon="2.38384">
        <ele>624</ele>
        <time>2015-10-25T09:19:39Z</time>
      </trkpt>
      <trkpt lat="45.38275" lon="2.38385">
        <ele>625</ele>
        <time>2015-10-25T09:19:48Z</time>
      </trkpt>
      <trkpt lat="45.38285" lon="2.38384">
        <ele>624</ele>
        <time>2015-10-25T09:19:52Z</time>
      </trkpt>
      <trkpt lat="45.38293" lon="2.3838">
        <ele>623</ele>
        <time>2015-10-25T09:19:55Z</time>
      </trkpt>
      <trkpt lat="45.38302" lon="2.38376">
        <ele>624</ele>
        <time>2015-10-25T09:19:58Z</time>
      </trkpt>
      <trkpt lat="45.38309" lon="2.38377">
        <ele>624</ele>
        <time>2015-10-25T09:20:01Z</time>
      </trkpt>
      <trkpt lat="45.38316" lon="2.38382">
        <ele>624</ele>
        <time>2015-10-25T09:20:05Z</time>
      </trkpt>
      <trkpt lat="45.38323" lon="2.38389">
        <ele>623</ele>
        <time>2015-10-25T09:20:09Z</time>
      </trkpt>
      <trkpt lat="45.38329" lon="2.38395">
        <ele>622</ele>
        <time>2015-10-25T09:20:13Z</time>
      </trkpt>
      <trkpt lat="45.38336" lon="2.38402">
        <ele>622</ele>
        <time>2015-10-25T09:20:17Z</time>
      </trkpt>
      <trkpt lat="45.38342" lon="2.38411">
        <ele>625</ele>
        <time>2015-10-25T09:20:21Z</time>
      </trkpt>
      <trkpt lat="45.38344" lon="2.38421">
        <ele>624</ele>
        <time>2015-10-25T09:20:24Z</time>
      </trkpt>
      <trkpt lat="45.38346" lon="2.38431">
        <ele>625</ele>
        <time>2015-10-25T09:20:27Z</time>
      </trkpt>
      <trkpt lat="45.38348" lon="2.38441">
        <ele>625</ele>
        <time>2015-10-25T09:20:30Z</time>
      </trkpt>
      <trkpt lat="45.3835" lon="2.38452">
        <ele>624</ele>
        <time>2015-10-25T09:20:33Z</time>
      </trkpt>
      <trkpt lat="45.38353" lon="2.38462">
        <ele>624</ele>
        <time>2015-10-25T09:20:36Z</time>
      </trkpt>
      <trkpt lat="45.38355" lon="2.38472">
        <ele>624</ele>
        <time>2015-10-25T09:20:39Z</time>
      </trkpt>
      <trkpt lat="45.38359" lon="2.38482">
        <ele>622</ele>
        <time>2015-10-25T09:20:42Z</time>
      </trkpt>
      <trkpt lat="45.38363" lon="2.38492">
        <ele>623</ele>
        <time>2015-10-25T09:20:45Z</time>
      </trkpt>
      <trkpt lat="45.38367" lon="2.38501">
        <ele>623</ele>
        <time>2015-10-25T09:20:48Z</time>
      </trkpt>
      <trkpt lat="45.38373" lon="2.38508">
        <ele>622</ele>
        <time>2015-10-25T09:20:51Z</time>
      </trkpt>
      <trkpt lat="45.38381" lon="2.38505">
        <ele>622</ele>
        <time>2015-10-25T09:20:54Z</time>
      </trkpt>
      <trkpt lat="45.38388" lon="2.38499">
        <ele>622</ele>
        <time>2015-10-25T09:20:56Z</time>
      </trkpt>
      <trkpt lat="45.38396" lon="2.38495">
        <ele>623</ele>
        <time>2015-10-25T09:20:59Z</time>
      </trkpt>
      <trkpt lat="45.38405" lon="2.38492">
        <ele>623</ele>
        <time>2015-10-25T09:21:02Z</time>
      </trkpt>
      <trkpt lat="45.38413" lon="2.3849">
        <ele>624</ele>
        <time>2015-10-25T09:21:05Z</time>
      </trkpt>
      <trkpt lat="45.38421" lon="2.3849">
        <ele>625</ele>
        <time>2015-10-25T09:21:08Z</time>
      </trkpt>
      <trkpt lat="45.38428" lon="2.3849">
        <ele>624</ele>
        <time>2015-10-25T09:21:12Z</time>
      </trkpt>
      <trkpt lat="45.38437" lon="2.38487">
        <ele>624</ele>
        <time>2015-10-25T09:21:16Z</time>
      </trkpt>
      <trkpt lat="45.38443" lon="2.38496">
        <ele>624</ele>
        <time>2015-10-25T09:21:20Z</time>
      </trkpt>
      <trkpt lat="45.38446" lon="2.38506">
        <ele>624</ele>
        <time>2015-10-25T09:21:23Z</time>
      </trkpt>
      <trkpt lat="45.38451" lon="2.38516">
        <ele>625</ele>
        <time>2015-10-25T09:21:27Z</time>
      </trkpt>
      <trkpt lat="45.38459" lon="2.38525">
        <ele>625</ele>
        <time>2015-10-25T09:21:31Z</time>
      </trkpt>
      <trkpt lat="45.38466" lon="2.3853">
        <ele>627</ele>
        <time>2015-10-25T09:21:34Z</time>
      </trkpt>
      <trkpt lat="45.38473" lon="2.38533">
        <ele>628</ele>
        <time>2015-10-25T09:21:37Z</time>
      </trkpt>
      <trkpt lat="45.38482" lon="2.38536">
        <ele>629</ele>
        <time>2015-10-25T09:21:41Z</time>
      </trkpt>
      <trkpt lat="45.3849" lon="2.38538">
        <ele>628</ele>
        <time>2015-10-25T09:21:44Z</time>
      </trkpt>
      <trkpt lat="45.38498" lon="2.38538">
        <ele>628</ele>
        <time>2015-10-25T09:21:46Z</time>
      </trkpt>
      <trkpt lat="45.38506" lon="2.38537">
        <ele>630</ele>
        <time>2015-10-25T09:21:48Z</time>
      </trkpt>
      <trkpt lat="45.38515" lon="2.38537">
        <ele>631</ele>
        <time>2015-10-25T09:21:50Z</time>
      </trkpt>
      <trkpt lat="45.38524" lon="2.38538">
        <ele>631</ele>
        <time>2015-10-25T09:21:52Z</time>
      </trkpt>
      <trkpt lat="45.38532" lon="2.3854">
        <ele>631</ele>
        <time>2015-10-25T09:21:54Z</time>
      </trkpt>
      <trkpt lat="45.38542" lon="2.38539">
        <ele>629</ele>
        <time>2015-10-25T09:21:57Z</time>
      </trkpt>
      <trkpt lat="45.3855" lon="2.38537">
        <ele>627</ele>
        <time>2015-10-25T09:21:59Z</time>
      </trkpt>
      <trkpt lat="45.38556" lon="2.38532">
        <ele>628</ele>
        <time>2015-10-25T09:22:01Z</time>
      </trkpt>
      <trkpt lat="45.38564" lon="2.38522">
        <ele>629</ele>
        <time>2015-10-25T09:22:04Z</time>
      </trkpt>
      <trkpt lat="45.38572" lon="2.38513">
        <ele>629</ele>
        <time>2015-10-25T09:22:07Z</time>
      </trkpt>
      <trkpt lat="45.38582" lon="2.38511">
        <ele>629</ele>
        <time>2015-10-25T09:22:10Z</time>
      </trkpt>
      <trkpt lat="45.38589" lon="2.38517">
        <ele>630</ele>
        <time>2015-10-25T09:22:14Z</time>
      </trkpt>
      <trkpt lat="45.38596" lon="2.38523">
        <ele>631</ele>
        <time>2015-10-25T09:22:17Z</time>
      </trkpt>
      <trkpt lat="45.38605" lon="2.38525">
        <ele>632</ele>
        <time>2015-10-25T09:22:21Z</time>
      </trkpt>
      <trkpt lat="45.38612" lon="2.3853">
        <ele>630</ele>
        <time>2015-10-25T09:22:25Z</time>
      </trkpt>
      <trkpt lat="45.38617" lon="2.38538">
        <ele>630</ele>
        <time>2015-10-25T09:22:29Z</time>
      </trkpt>
      <trkpt lat="45.38619" lon="2.38549">
        <ele>629</ele>
        <time>2015-10-25T09:22:33Z</time>
      </trkpt>
      <trkpt lat="45.3862" lon="2.38559">
        <ele>634</ele>
        <time>2015-10-25T09:22:38Z</time>
      </trkpt>
      <trkpt lat="45.38622" lon="2.38571">
        <ele>629</ele>
        <time>2015-10-25T09:22:43Z</time>
      </trkpt>
      <trkpt lat="45.38624" lon="2.38582">
        <ele>632</ele>
        <time>2015-10-25T09:22:47Z</time>
      </trkpt>
      <trkpt lat="45.38625" lon="2.38594">
        <ele>631</ele>
        <time>2015-10-25T09:22:51Z</time>
      </trkpt>
      <trkpt lat="45.38627" lon="2.38606">
        <ele>631</ele>
        <time>2015-10-25T09:22:55Z</time>
      </trkpt>
      <trkpt lat="45.3863" lon="2.38617">
        <ele>630</ele>
        <time>2015-10-25T09:22:59Z</time>
      </trkpt>
      <trkpt lat="45.38631" lon="2.38627">
        <ele>628</ele>
        <time>2015-10-25T09:23:03Z</time>
      </trkpt>
      <trkpt lat="45.38633" lon="2.38638">
        <ele>629</ele>
        <time>2015-10-25T09:23:07Z</time>
      </trkpt>
      <trkpt lat="45.38635" lon="2.38649">
        <ele>626</ele>
        <time>2015-10-25T09:23:11Z</time>
      </trkpt>
      <trkpt lat="45.38643" lon="2.38652">
        <ele>628</ele>
        <time>2015-10-25T09:23:16Z</time>
      </trkpt>
      <trkpt lat="45.38652" lon="2.38653">
        <ele>631</ele>
        <time>2015-10-25T09:23:21Z</time>
      </trkpt>
      <trkpt lat="45.38661" lon="2.38655">
        <ele>630</ele>
        <time>2015-10-25T09:23:24Z</time>
      </trkpt>
      <trkpt lat="45.38669" lon="2.38658">
        <ele>632</ele>
        <time>2015-10-25T09:23:27Z</time>
      </trkpt>
      <trkpt lat="45.38677" lon="2.3866">
        <ele>632</ele>
        <time>2015-10-25T09:23:30Z</time>
      </trkpt>
      <trkpt lat="45.38685" lon="2.38664">
        <ele>631</ele>
        <time>2015-10-25T09:23:34Z</time>
      </trkpt>
      <trkpt lat="45.38694" lon="2.3867">
        <ele>631</ele>
        <time>2015-10-25T09:23:38Z</time>
      </trkpt>
      <trkpt lat="45.38702" lon="2.38674">
        <ele>634</ele>
        <time>2015-10-25T09:23:41Z</time>
      </trkpt>
      <trkpt lat="45.3871" lon="2.38678">
        <ele>632</ele>
        <time>2015-10-25T09:23:44Z</time>
      </trkpt>
      <trkpt lat="45.38717" lon="2.38683">
        <ele>633</ele>
        <time>2015-10-25T09:23:47Z</time>
      </trkpt>
      <trkpt lat="45.38724" lon="2.38689">
        <ele>633</ele>
        <time>2015-10-25T09:23:50Z</time>
      </trkpt>
      <trkpt lat="45.3873" lon="2.38695">
        <ele>633</ele>
        <time>2015-10-25T09:23:53Z</time>
      </trkpt>
      <trkpt lat="45.38737" lon="2.38699">
        <ele>631</ele>
        <time>2015-10-25T09:23:56Z</time>
      </trkpt>
      <trkpt lat="45.38744" lon="2.38707">
        <ele>631</ele>
        <time>2015-10-25T09:23:59Z</time>
      </trkpt>
      <trkpt lat="45.3875" lon="2.38716">
        <ele>630</ele>
        <time>2015-10-25T09:24:02Z</time>
      </trkpt>
      <trkpt lat="45.38757" lon="2.38725">
        <ele>631</ele>
        <time>2015-10-25T09:24:05Z</time>
      </trkpt>
      <trkpt lat="45.38763" lon="2.38734">
        <ele>630</ele>
        <time>2015-10-25T09:24:08Z</time>
      </trkpt>
      <trkpt lat="45.3877" lon="2.38743">
        <ele>631</ele>
        <time>2015-10-25T09:24:11Z</time>
      </trkpt>
      <trkpt lat="45.38775" lon="2.38753">
        <ele>632</ele>
        <time>2015-10-25T09:24:14Z</time>
      </trkpt>
      <trkpt lat="45.38779" lon="2.38763">
        <ele>635</ele>
        <time>2015-10-25T09:24:17Z</time>
      </trkpt>
      <trkpt lat="45.38783" lon="2.38775">
        <ele>633</ele>
        <time>2015-10-25T09:24:20Z</time>
      </trkpt>
      <trkpt lat="45.38787" lon="2.38786">
        <ele>635</ele>
        <time>2015-10-25T09:24:23Z</time>
      </trkpt>
      <trkpt lat="45.38791" lon="2.38797">
        <ele>638</ele>
        <time>2015-10-25T09:24:26Z</time>
      </trkpt>
      <trkpt lat="45.38792" lon="2.38808">
        <ele>633</ele>
        <time>2015-10-25T09:24:30Z</time>
      </trkpt>
      <trkpt lat="45.38788" lon="2.38818">
        <ele>637</ele>
        <time>2015-10-25T09:24:34Z</time>
      </trkpt>
      <trkpt lat="45.38783" lon="2.38831">
        <ele>639</ele>
        <time>2015-10-25T09:24:38Z</time>
      </trkpt>
      <trkpt lat="45.38779" lon="2.38842">
        <ele>634</ele>
        <time>2015-10-25T09:24:41Z</time>
      </trkpt>
      <trkpt lat="45.38775" lon="2.38851">
        <ele>643</ele>
        <time>2015-10-25T09:24:44Z</time>
      </trkpt>
      <trkpt lat="45.38771" lon="2.38861">
        <ele>635</ele>
        <time>2015-10-25T09:24:47Z</time>
      </trkpt>
      <trkpt lat="45.38767" lon="2.38872">
        <ele>637</ele>
        <time>2015-10-25T09:24:50Z</time>
      </trkpt>
      <trkpt lat="45.38764" lon="2.38883">
        <ele>645</ele>
        <time>2015-10-25T09:24:53Z</time>
      </trkpt>
      <trkpt lat="45.3876" lon="2.38894">
        <ele>647</ele>
        <time>2015-10-25T09:24:56Z</time>
      </trkpt>
      <trkpt lat="45.38757" lon="2.38903">
        <ele>647</ele>
        <time>2015-10-25T09:24:59Z</time>
      </trkpt>
      <trkpt lat="45.38752" lon="2.38914">
        <ele>638</ele>
        <time>2015-10-25T09:25:03Z</time>
      </trkpt>
      <trkpt lat="45.38746" lon="2.38921">
        <ele>643</ele>
        <time>2015-10-25T09:25:06Z</time>
      </trkpt>
      <trkpt lat="45.3874" lon="2.38926">
        <ele>645</ele>
        <time>2015-10-25T09:25:09Z</time>
      </trkpt>
      <trkpt lat="45.38733" lon="2.38932">
        <ele>645</ele>
        <time>2015-10-25T09:25:12Z</time>
      </trkpt>
      <trkpt lat="45.38725" lon="2.38936">
        <ele>644</ele>
        <time>2015-10-25T09:25:15Z</time>
      </trkpt>
      <trkpt lat="45.38719" lon="2.38944">
        <ele>643</ele>
        <time>2015-10-25T09:25:20Z</time>
      </trkpt>
      <trkpt lat="45.38717" lon="2.38956">
        <ele>639</ele>
        <time>2015-10-25T09:25:24Z</time>
      </trkpt>
      <trkpt lat="45.3871" lon="2.38963">
        <ele>642</ele>
        <time>2015-10-25T09:25:27Z</time>
      </trkpt>
      <trkpt lat="45.38702" lon="2.38969">
        <ele>644</ele>
        <time>2015-10-25T09:25:31Z</time>
      </trkpt>
      <trkpt lat="45.38698" lon="2.3898">
        <ele>649</ele>
        <time>2015-10-25T09:25:35Z</time>
      </trkpt>
      <trkpt lat="45.38697" lon="2.3899">
        <ele>651</ele>
        <time>2015-10-25T09:25:39Z</time>
      </trkpt>
      <trkpt lat="45.38698" lon="2.38992">
        <ele>650</ele>
        <time>2015-10-25T09:25:46Z</time>
      </trkpt>
      <trkpt lat="45.38699" lon="2.38993">
        <ele>651</ele>
        <time>2015-10-25T09:25:55Z</time>
      </trkpt>
      <trkpt lat="45.38699" lon="2.38993">
        <ele>651</ele>
        <time>2015-10-25T09:25:56Z</time>
      </trkpt>
      <trkpt lat="45.38698" lon="2.38994">
        <ele>650</ele>
        <time>2015-10-25T09:26:10Z</time>
      </trkpt>
      <trkpt lat="45.38698" lon="2.38994">
        <ele>651</ele>
        <time>2015-10-25T09:26:11Z</time>
      </trkpt>
    </trkseg>
  </trk>
</gpx>